<?xml version='1.0' encoding='UTF-8'?><gpx version="1.1" creator="JPX - https://github.com/jenetics/jpx" xmlns="http://www.topografix.com/GPX/1/1"><trk><trkseg><trkpt lat="46.0126235" lon="10.9360129"><ele>270.0</ele><time>2026-04-09T10:48:59.277Z</time></trkpt><trkpt lat="46.012701" lon="10.9360666"><ele>270.0</ele><time>2026-04-09T10:49:01.243Z</time></trkpt><trkpt lat="46.0127474" lon="10.9359961"><ele>270.0</ele><time>2026-04-09T10:49:05.181Z</time></trkpt><trkpt lat="46.0127613" lon="10.9358323"><ele>270.0</ele><time>2026-04-09T10:49:06.249Z</time></trkpt><trkpt lat="46.0127213" lon="10.9356677"><ele>270.0</ele><time>2026-04-09T10:49:09.251Z</time></trkpt><trkpt lat="46.0126942" lon="10.9355856"><ele>270.8333333333333</ele><time>2026-04-09T10:49:12.287Z</time></trkpt><trkpt lat="46.0127466" lon="10.9355028"><ele>271.6666666666667</ele><time>2026-04-09T10:49:15.263Z</time></trkpt><trkpt lat="46.0128235" lon="10.9355469"><ele>272.5</ele><time>2026-04-09T10:49:18.268Z</time></trkpt><trkpt lat="46.0129156" lon="10.9355593"><ele>273.33333333333337</ele><time>2026-04-09T10:49:20.264Z</time></trkpt><trkpt lat="46.0129785" lon="10.935568"><ele>274.1666666666667</ele><time>2026-04-09T10:49:21.256Z</time></trkpt><trkpt lat="46.0130433" lon="10.935586"><ele>275.0</ele><time>2026-04-09T10:49:22.265Z</time></trkpt><trkpt lat="46.0131141" lon="10.935597"><ele>275.0</ele><time>2026-04-09T10:49:23.258Z</time></trkpt><trkpt lat="46.0131968" lon="10.9355957"><ele>275.0</ele><time>2026-04-09T10:49:24.261Z</time></trkpt><trkpt lat="46.0132789" lon="10.9355754"><ele>275.0</ele><time>2026-04-09T10:49:25.262Z</time></trkpt><trkpt lat="46.0133673" lon="10.9355352"><ele>275.0</ele><time>2026-04-09T10:49:26.264Z</time></trkpt><trkpt lat="46.0134517" lon="10.9354738"><ele>275.0</ele><time>2026-04-09T10:49:27.273Z</time></trkpt><trkpt lat="46.0135256" lon="10.9353995"><ele>275.0</ele><time>2026-04-09T10:49:28.262Z</time></trkpt><trkpt lat="46.0135946" lon="10.935309"><ele>277.6</ele><time>2026-04-09T10:49:29.267Z</time></trkpt><trkpt lat="46.0136594" lon="10.9351869"><ele>280.2</ele><time>2026-04-09T10:49:30.258Z</time></trkpt><trkpt lat="46.0137284" lon="10.9350862"><ele>282.8</ele><time>2026-04-09T10:49:31.257Z</time></trkpt><trkpt lat="46.0137944" lon="10.9349855"><ele>285.4</ele><time>2026-04-09T10:49:32.262Z</time></trkpt><trkpt lat="46.0138648" lon="10.934905"><ele>288.0</ele><time>2026-04-09T10:49:33.261Z</time></trkpt><trkpt lat="46.0139366" lon="10.9348519"><ele>288.14285714285717</ele><time>2026-04-09T10:49:34.246Z</time></trkpt><trkpt lat="46.0140157" lon="10.9348438"><ele>288.2857142857143</ele><time>2026-04-09T10:49:35.261Z</time></trkpt><trkpt lat="46.0140797" lon="10.9348552"><ele>288.42857142857144</ele><time>2026-04-09T10:49:36.263Z</time></trkpt><trkpt lat="46.0141454" lon="10.9348594"><ele>288.57142857142856</ele><time>2026-04-09T10:49:38.266Z</time></trkpt><trkpt lat="46.0140908" lon="10.9349725"><ele>288.7142857142857</ele><time>2026-04-09T10:49:41.267Z</time></trkpt><trkpt lat="46.0140239" lon="10.9349672"><ele>288.8571428571429</ele><time>2026-04-09T10:49:42.26Z</time></trkpt><trkpt lat="46.0139523" lon="10.934959"><ele>289.0</ele><time>2026-04-09T10:49:43.261Z</time></trkpt><trkpt lat="46.0138297" lon="10.9349936"><ele>289.0</ele><time>2026-04-09T10:49:45.268Z</time></trkpt><trkpt lat="46.0137682" lon="10.9350385"><ele>289.0</ele><time>2026-04-09T10:49:46.262Z</time></trkpt><trkpt lat="46.0137183" lon="10.9351027"><ele>289.0</ele><time>2026-04-09T10:49:47.243Z</time></trkpt><trkpt lat="46.0136662" lon="10.9351954"><ele>289.0</ele><time>2026-04-09T10:49:48.248Z</time></trkpt><trkpt lat="46.0136099" lon="10.93529"><ele>289.0</ele><time>2026-04-09T10:49:49.255Z</time></trkpt><trkpt lat="46.0135557" lon="10.9353811"><ele>289.0</ele><time>2026-04-09T10:49:50.264Z</time></trkpt><trkpt lat="46.0135029" lon="10.9354567"><ele>288.8333333333333</ele><time>2026-04-09T10:49:51.266Z</time></trkpt><trkpt lat="46.0134528" lon="10.9355277"><ele>288.66666666666663</ele><time>2026-04-09T10:49:52.257Z</time></trkpt><trkpt lat="46.0134085" lon="10.9355962"><ele>288.5</ele><time>2026-04-09T10:49:53.263Z</time></trkpt><trkpt lat="46.0133706" lon="10.9357519"><ele>288.3333333333333</ele><time>2026-04-09T10:49:55.26Z</time></trkpt><trkpt lat="46.013393" lon="10.9358584"><ele>288.1666666666667</ele><time>2026-04-09T10:49:56.263Z</time></trkpt><trkpt lat="46.013419" lon="10.9359606"><ele>288.0</ele><time>2026-04-09T10:49:57.258Z</time></trkpt><trkpt lat="46.0134332" lon="10.936052"><ele>288.0</ele><time>2026-04-09T10:49:58.254Z</time></trkpt><trkpt lat="46.0134572" lon="10.9361509"><ele>288.0</ele><time>2026-04-09T10:50:00.266Z</time></trkpt><trkpt lat="46.0135235" lon="10.9361376"><ele>288.0</ele><time>2026-04-09T10:50:02.266Z</time></trkpt><trkpt lat="46.0135761" lon="10.9359958"><ele>288.0</ele><time>2026-04-09T10:50:04.245Z</time></trkpt><trkpt lat="46.0135696" lon="10.9358176"><ele>288.0</ele><time>2026-04-09T10:50:06.267Z</time></trkpt><trkpt lat="46.0135502" lon="10.9357089"><ele>288.0</ele><time>2026-04-09T10:50:07.271Z</time></trkpt><trkpt lat="46.0135415" lon="10.9355656"><ele>288.0</ele><time>2026-04-09T10:50:09.262Z</time></trkpt><trkpt lat="46.0136151" lon="10.9355713"><ele>288.0</ele><time>2026-04-09T10:50:11.269Z</time></trkpt><trkpt lat="46.0136491" lon="10.9356549"><ele>288.0</ele><time>2026-04-09T10:50:12.26Z</time></trkpt><trkpt lat="46.0136562" lon="10.9357631"><ele>288.0</ele><time>2026-04-09T10:50:13.267Z</time></trkpt><trkpt lat="46.0136642" lon="10.9358629"><ele>288.0</ele><time>2026-04-09T10:50:14.27Z</time></trkpt><trkpt lat="46.0137172" lon="10.9359792"><ele>288.0</ele><time>2026-04-09T10:50:16.263Z</time></trkpt><trkpt lat="46.0137831" lon="10.9359548"><ele>288.0</ele><time>2026-04-09T10:50:19.251Z</time></trkpt><trkpt lat="46.0137414" lon="10.9358423"><ele>288.0</ele><time>2026-04-09T10:50:21.266Z</time></trkpt><trkpt lat="46.0136709" lon="10.9356964"><ele>288.0</ele><time>2026-04-09T10:50:23.265Z</time></trkpt><trkpt lat="46.0136326" lon="10.9355891"><ele>288.0</ele><time>2026-04-09T10:50:24.26Z</time></trkpt><trkpt lat="46.0136079" lon="10.9354883"><ele>288.0</ele><time>2026-04-09T10:50:25.262Z</time></trkpt><trkpt lat="46.0136412" lon="10.9353478"><ele>288.0</ele><time>2026-04-09T10:50:27.254Z</time></trkpt><trkpt lat="46.0137513" lon="10.9353331"><ele>288.0</ele><time>2026-04-09T10:50:29.247Z</time></trkpt><trkpt lat="46.0137991" lon="10.9354458"><ele>288.0</ele><time>2026-04-09T10:50:31.263Z</time></trkpt><trkpt lat="46.0138211" lon="10.9356059"><ele>288.0</ele><time>2026-04-09T10:50:33.263Z</time></trkpt><trkpt lat="46.0138339" lon="10.9356989"><ele>288.0</ele><time>2026-04-09T10:50:34.26Z</time></trkpt><trkpt lat="46.0138435" lon="10.9358572"><ele>288.0</ele><time>2026-04-09T10:50:36.253Z</time></trkpt><trkpt lat="46.0138787" lon="10.9359567"><ele>288.0</ele><time>2026-04-09T10:50:38.259Z</time></trkpt><trkpt lat="46.0139608" lon="10.9360034"><ele>288.0</ele><time>2026-04-09T10:50:41.276Z</time></trkpt><trkpt lat="46.0140398" lon="10.9359482"><ele>288.0</ele><time>2026-04-09T10:50:43.259Z</time></trkpt><trkpt lat="46.014103" lon="10.9358822"><ele>288.0</ele><time>2026-04-09T10:50:45.261Z</time></trkpt><trkpt lat="46.0141588" lon="10.9357868"><ele>288.0</ele><time>2026-04-09T10:50:47.261Z</time></trkpt><trkpt lat="46.0142076" lon="10.935687"><ele>288.0</ele><time>2026-04-09T10:50:49.272Z</time></trkpt><trkpt lat="46.0142187" lon="10.9355961"><ele>288.0</ele><time>2026-04-09T10:50:55.257Z</time></trkpt><trkpt lat="46.014155" lon="10.9356402"><ele>288.0</ele><time>2026-04-09T10:52:19.272Z</time></trkpt><trkpt lat="46.0141427" lon="10.9357544"><ele>288.0</ele><time>2026-04-09T10:52:22.259Z</time></trkpt><trkpt lat="46.0140907" lon="10.9358536"><ele>288.0</ele><time>2026-04-09T10:52:25.253Z</time></trkpt><trkpt lat="46.0140233" lon="10.9358733"><ele>288.0</ele><time>2026-04-09T10:52:27.269Z</time></trkpt><trkpt lat="46.0139265" lon="10.935842"><ele>288.0</ele><time>2026-04-09T10:52:29.272Z</time></trkpt><trkpt lat="46.0138731" lon="10.9357661"><ele>288.0</ele><time>2026-04-09T10:52:31.255Z</time></trkpt><trkpt lat="46.0138663" lon="10.9356754"><ele>288.0</ele><time>2026-04-09T10:52:33.27Z</time></trkpt><trkpt lat="46.0139407" lon="10.9356507"><ele>288.0</ele><time>2026-04-09T10:52:35.257Z</time></trkpt><trkpt lat="46.014015" lon="10.9357614"><ele>288.0</ele><time>2026-04-09T10:52:37.258Z</time></trkpt><trkpt lat="46.0140784" lon="10.9358284"><ele>288.0</ele><time>2026-04-09T10:52:40.258Z</time></trkpt><trkpt lat="46.0140259" lon="10.9356728"><ele>288.0</ele><time>2026-04-09T10:52:43.265Z</time></trkpt><trkpt lat="46.0139543" lon="10.9355977"><ele>288.0</ele><time>2026-04-09T10:52:44.263Z</time></trkpt><trkpt lat="46.0138828" lon="10.9354915"><ele>288.0</ele><time>2026-04-09T10:52:45.262Z</time></trkpt><trkpt lat="46.0138249" lon="10.9353966"><ele>288.0</ele><time>2026-04-09T10:52:46.258Z</time></trkpt><trkpt lat="46.0137784" lon="10.9352788"><ele>288.0</ele><time>2026-04-09T10:52:48.264Z</time></trkpt><trkpt lat="46.0138592" lon="10.9352205"><ele>288.0</ele><time>2026-04-09T10:52:51.255Z</time></trkpt><trkpt lat="46.0139423" lon="10.9353534"><ele>288.0</ele><time>2026-04-09T10:52:53.268Z</time></trkpt><trkpt lat="46.0139868" lon="10.9354393"><ele>288.0</ele><time>2026-04-09T10:52:54.258Z</time></trkpt><trkpt lat="46.014069" lon="10.9355327"><ele>288.0</ele><time>2026-04-09T10:52:56.266Z</time></trkpt><trkpt lat="46.0141534" lon="10.9355185"><ele>288.0</ele><time>2026-04-09T10:52:58.238Z</time></trkpt><trkpt lat="46.0142446" lon="10.9354465"><ele>288.0</ele><time>2026-04-09T10:53:00.251Z</time></trkpt><trkpt lat="46.0143516" lon="10.9353853"><ele>288.0</ele><time>2026-04-09T10:53:02.26Z</time></trkpt><trkpt lat="46.0143106" lon="10.9352911"><ele>288.0</ele><time>2026-04-09T10:53:06.265Z</time></trkpt><trkpt lat="46.0142457" lon="10.9353211"><ele>288.0</ele><time>2026-04-09T10:53:08.269Z</time></trkpt><trkpt lat="46.0141643" lon="10.9353579"><ele>288.0</ele><time>2026-04-09T10:53:10.264Z</time></trkpt><trkpt lat="46.0140579" lon="10.9352986"><ele>288.0</ele><time>2026-04-09T10:53:12.244Z</time></trkpt><trkpt lat="46.0139992" lon="10.9352471"><ele>288.0</ele><time>2026-04-09T10:53:13.248Z</time></trkpt><trkpt lat="46.0138986" lon="10.9351789"><ele>288.0</ele><time>2026-04-09T10:53:15.257Z</time></trkpt><trkpt lat="46.013852" lon="10.9351052"><ele>288.0</ele><time>2026-04-09T10:53:17.266Z</time></trkpt><trkpt lat="46.0139392" lon="10.9350227"><ele>288.0</ele><time>2026-04-09T10:53:19.246Z</time></trkpt><trkpt lat="46.014011" lon="10.9350341"><ele>288.0</ele><time>2026-04-09T10:53:20.259Z</time></trkpt><trkpt lat="46.0140846" lon="10.9350671"><ele>288.0</ele><time>2026-04-09T10:53:21.255Z</time></trkpt><trkpt lat="46.0141508" lon="10.9351031"><ele>288.0</ele><time>2026-04-09T10:53:22.254Z</time></trkpt><trkpt lat="46.0142668" lon="10.9351586"><ele>288.0</ele><time>2026-04-09T10:53:24.268Z</time></trkpt><trkpt lat="46.0143291" lon="10.9351869"><ele>288.0</ele><time>2026-04-09T10:53:25.248Z</time></trkpt><trkpt lat="46.0144207" lon="10.935216"><ele>288.0</ele><time>2026-04-09T10:53:27.242Z</time></trkpt><trkpt lat="46.0144809" lon="10.9352961"><ele>288.0</ele><time>2026-04-09T10:53:29.253Z</time></trkpt><trkpt lat="46.0145092" lon="10.9354251"><ele>289.0</ele><time>2026-04-09T10:53:31.26Z</time></trkpt><trkpt lat="46.0144941" lon="10.9355364"><ele>290.0</ele><time>2026-04-09T10:53:33.259Z</time></trkpt><trkpt lat="46.0144265" lon="10.9356356"><ele>291.0</ele><time>2026-04-09T10:53:36.266Z</time></trkpt><trkpt lat="46.014396" lon="10.935761"><ele>292.0</ele><time>2026-04-09T10:53:38.266Z</time></trkpt><trkpt lat="46.0143426" lon="10.93589"><ele>293.0</ele><time>2026-04-09T10:53:40.263Z</time></trkpt><trkpt lat="46.0142574" lon="10.9360054"><ele>292.0</ele><time>2026-04-09T10:53:42.258Z</time></trkpt><trkpt lat="46.0141486" lon="10.9360641"><ele>291.0</ele><time>2026-04-09T10:53:44.264Z</time></trkpt><trkpt lat="46.0140832" lon="10.9360849"><ele>290.0</ele><time>2026-04-09T10:53:45.274Z</time></trkpt><trkpt lat="46.0140189" lon="10.9361149"><ele>289.0</ele><time>2026-04-09T10:53:46.263Z</time></trkpt><trkpt lat="46.0139469" lon="10.9361738"><ele>288.0</ele><time>2026-04-09T10:53:48.258Z</time></trkpt><trkpt lat="46.0138706" lon="10.9361783"><ele>287.0</ele><time>2026-04-09T10:53:50.255Z</time></trkpt><trkpt lat="46.0137746" lon="10.9361251"><ele>287.0</ele><time>2026-04-09T10:53:52.259Z</time></trkpt><trkpt lat="46.0137101" lon="10.9360934"><ele>287.0</ele><time>2026-04-09T10:53:54.246Z</time></trkpt><trkpt lat="46.0136632" lon="10.9361639"><ele>287.0</ele><time>2026-04-09T10:53:58.262Z</time></trkpt><trkpt lat="46.0135859" lon="10.9362274"><ele>287.0</ele><time>2026-04-09T10:54:01.265Z</time></trkpt><trkpt lat="46.0134611" lon="10.9361905"><ele>287.0</ele><time>2026-04-09T10:54:03.242Z</time></trkpt><trkpt lat="46.0133938" lon="10.9361625"><ele>287.0</ele><time>2026-04-09T10:54:04.256Z</time></trkpt><trkpt lat="46.0132982" lon="10.9360859"><ele>285.0</ele><time>2026-04-09T10:54:06.261Z</time></trkpt><trkpt lat="46.0132695" lon="10.935971"><ele>283.0</ele><time>2026-04-09T10:54:08.259Z</time></trkpt><trkpt lat="46.0133026" lon="10.9358542"><ele>281.0</ele><time>2026-04-09T10:54:10.265Z</time></trkpt><trkpt lat="46.0133089" lon="10.93574"><ele>279.0</ele><time>2026-04-09T10:54:12.243Z</time></trkpt><trkpt lat="46.0132285" lon="10.9357"><ele>277.0</ele><time>2026-04-09T10:54:14.247Z</time></trkpt><trkpt lat="46.0131471" lon="10.9356848"><ele>275.0</ele><time>2026-04-09T10:54:16.263Z</time></trkpt><trkpt lat="46.0130765" lon="10.9357119"><ele>275.0</ele><time>2026-04-09T10:54:19.244Z</time></trkpt><trkpt lat="46.0130719" lon="10.9358289"><ele>275.0</ele><time>2026-04-09T10:54:22.254Z</time></trkpt><trkpt lat="46.0131179" lon="10.935952"><ele>275.0</ele><time>2026-04-09T10:54:24.249Z</time></trkpt><trkpt lat="46.0131622" lon="10.9360818"><ele>275.0</ele><time>2026-04-09T10:54:26.262Z</time></trkpt><trkpt lat="46.0132001" lon="10.9361972"><ele>275.0</ele><time>2026-04-09T10:54:28.263Z</time></trkpt><trkpt lat="46.0132749" lon="10.9362768"><ele>274.1666666666667</ele><time>2026-04-09T10:54:30.265Z</time></trkpt><trkpt lat="46.0133538" lon="10.9363458"><ele>273.33333333333337</ele><time>2026-04-09T10:54:32.262Z</time></trkpt><trkpt lat="46.0134055" lon="10.9364293"><ele>272.5</ele><time>2026-04-09T10:54:34.248Z</time></trkpt><trkpt lat="46.0134502" lon="10.9365073"><ele>271.6666666666667</ele><time>2026-04-09T10:54:37.268Z</time></trkpt><trkpt lat="46.0134073" lon="10.9365918"><ele>270.8333333333333</ele><time>2026-04-09T10:54:56.262Z</time></trkpt><trkpt lat="46.0133208" lon="10.9365695"><ele>270.0</ele><time>2026-04-09T10:54:59.255Z</time></trkpt><trkpt lat="46.0132326" lon="10.936484"><ele>270.0</ele><time>2026-04-09T10:55:01.264Z</time></trkpt><trkpt lat="46.0131605" lon="10.9363917"><ele>270.0</ele><time>2026-04-09T10:55:03.267Z</time></trkpt><trkpt lat="46.0131299" lon="10.9362734"><ele>270.0</ele><time>2026-04-09T10:55:06.257Z</time></trkpt><trkpt lat="46.0130851" lon="10.9361618"><ele>270.0</ele><time>2026-04-09T10:55:08.257Z</time></trkpt><trkpt lat="46.0130158" lon="10.9360597"><ele>270.0</ele><time>2026-04-09T10:55:10.251Z</time></trkpt><trkpt lat="46.0129879" lon="10.9359629"><ele>270.0</ele><time>2026-04-09T10:55:12.25Z</time></trkpt><trkpt lat="46.0129772" lon="10.9358452"><ele>270.8333333333333</ele><time>2026-04-09T10:55:14.26Z</time></trkpt><trkpt lat="46.0129627" lon="10.935732"><ele>271.6666666666667</ele><time>2026-04-09T10:55:16.249Z</time></trkpt><trkpt lat="46.0129256" lon="10.9356516"><ele>272.5</ele><time>2026-04-09T10:55:18.268Z</time></trkpt><trkpt lat="46.0128635" lon="10.9356267"><ele>273.33333333333337</ele><time>2026-04-09T10:55:20.26Z</time></trkpt><trkpt lat="46.0127724" lon="10.9356509"><ele>274.1666666666667</ele><time>2026-04-09T10:55:23.254Z</time></trkpt><trkpt lat="46.0126982" lon="10.935666"><ele>275.0</ele><time>2026-04-09T10:55:25.249Z</time></trkpt><trkpt lat="46.0126598" lon="10.9355525"><ele>275.0</ele><time>2026-04-09T10:55:28.248Z</time></trkpt><trkpt lat="46.01271" lon="10.9354893"><ele>275.0</ele><time>2026-04-09T10:56:16.259Z</time></trkpt><trkpt lat="46.0127377" lon="10.9353843"><ele>275.0</ele><time>2026-04-09T11:01:48.267Z</time></trkpt><trkpt lat="46.0128087" lon="10.9353205"><ele>275.0</ele><time>2026-04-09T11:01:51.279Z</time></trkpt><trkpt lat="46.0127906" lon="10.9352108"><ele>275.0</ele><time>2026-04-09T11:01:55.262Z</time></trkpt><trkpt lat="46.0127284" lon="10.9352728"><ele>275.0</ele><time>2026-04-09T11:01:58.269Z</time></trkpt><trkpt lat="46.0127352" lon="10.9353938"><ele>275.0</ele><time>2026-04-09T11:02:01.25Z</time></trkpt><trkpt lat="46.0127651" lon="10.935476"><ele>275.0</ele><time>2026-04-09T11:02:04.263Z</time></trkpt><trkpt lat="46.0128343" lon="10.9355168"><ele>275.0</ele><time>2026-04-09T11:02:07.265Z</time></trkpt><trkpt lat="46.0129195" lon="10.9355078"><ele>275.0</ele><time>2026-04-09T11:02:09.263Z</time></trkpt><trkpt lat="46.0130553" lon="10.9355413"><ele>275.0</ele><time>2026-04-09T11:02:11.26Z</time></trkpt><trkpt lat="46.0131316" lon="10.9355473"><ele>275.0</ele><time>2026-04-09T11:02:12.258Z</time></trkpt><trkpt lat="46.013201" lon="10.9355408"><ele>275.0</ele><time>2026-04-09T11:02:13.259Z</time></trkpt><trkpt lat="46.0132778" lon="10.9355203"><ele>275.0</ele><time>2026-04-09T11:02:14.25Z</time></trkpt><trkpt lat="46.0133568" lon="10.9354825"><ele>275.0</ele><time>2026-04-09T11:02:15.279Z</time></trkpt><trkpt lat="46.0134378" lon="10.9354316"><ele>275.0</ele><time>2026-04-09T11:02:16.247Z</time></trkpt><trkpt lat="46.0135157" lon="10.9353655"><ele>275.0</ele><time>2026-04-09T11:02:17.259Z</time></trkpt><trkpt lat="46.0135746" lon="10.9352814"><ele>275.0</ele><time>2026-04-09T11:02:18.252Z</time></trkpt><trkpt lat="46.0136349" lon="10.9351871"><ele>277.6</ele><time>2026-04-09T11:02:19.26Z</time></trkpt><trkpt lat="46.013704" lon="10.9350786"><ele>280.2</ele><time>2026-04-09T11:02:20.258Z</time></trkpt><trkpt lat="46.0137653" lon="10.9349816"><ele>282.8</ele><time>2026-04-09T11:02:21.263Z</time></trkpt><trkpt lat="46.0138176" lon="10.9349057"><ele>285.4</ele><time>2026-04-09T11:02:22.251Z</time></trkpt><trkpt lat="46.013939" lon="10.9348392"><ele>288.0</ele><time>2026-04-09T11:02:24.263Z</time></trkpt><trkpt lat="46.0140221" lon="10.934836"><ele>288.1666666666667</ele><time>2026-04-09T11:02:25.274Z</time></trkpt><trkpt lat="46.0140865" lon="10.9348442"><ele>288.3333333333333</ele><time>2026-04-09T11:02:26.248Z</time></trkpt><trkpt lat="46.0141495" lon="10.9348437"><ele>288.5</ele><time>2026-04-09T11:02:28.257Z</time></trkpt><trkpt lat="46.0141425" lon="10.9349481"><ele>288.66666666666663</ele><time>2026-04-09T11:02:31.257Z</time></trkpt><trkpt lat="46.01403" lon="10.9349571"><ele>288.8333333333333</ele><time>2026-04-09T11:02:33.249Z</time></trkpt><trkpt lat="46.0139058" lon="10.9349539"><ele>289.0</ele><time>2026-04-09T11:02:35.258Z</time></trkpt><trkpt lat="46.0137941" lon="10.9350186"><ele>288.8</ele><time>2026-04-09T11:02:37.257Z</time></trkpt><trkpt lat="46.0136859" lon="10.9351466"><ele>288.59999999999997</ele><time>2026-04-09T11:02:39.245Z</time></trkpt><trkpt lat="46.0136277" lon="10.9352452"><ele>288.4</ele><time>2026-04-09T11:02:40.242Z</time></trkpt><trkpt lat="46.0135657" lon="10.9353374"><ele>288.2</ele><time>2026-04-09T11:02:41.266Z</time></trkpt><trkpt lat="46.0135111" lon="10.9354105"><ele>288.0</ele><time>2026-04-09T11:02:42.258Z</time></trkpt><trkpt lat="46.0134681" lon="10.9354817"><ele>288.0</ele><time>2026-04-09T11:02:43.258Z</time></trkpt><trkpt lat="46.0133899" lon="10.9356153"><ele>288.0</ele><time>2026-04-09T11:02:45.273Z</time></trkpt><trkpt lat="46.0133882" lon="10.9357959"><ele>288.0</ele><time>2026-04-09T11:02:47.256Z</time></trkpt><trkpt lat="46.0134049" lon="10.9359005"><ele>288.0</ele><time>2026-04-09T11:02:48.247Z</time></trkpt><trkpt lat="46.0134155" lon="10.9360113"><ele>288.0</ele><time>2026-04-09T11:02:49.262Z</time></trkpt><trkpt lat="46.0134287" lon="10.9361154"><ele>288.0</ele><time>2026-04-09T11:02:51.262Z</time></trkpt><trkpt lat="46.0135236" lon="10.9360799"><ele>288.0</ele><time>2026-04-09T11:02:54.269Z</time></trkpt><trkpt lat="46.0135651" lon="10.9359315"><ele>288.0</ele><time>2026-04-09T11:02:56.241Z</time></trkpt><trkpt lat="46.0135474" lon="10.9357469"><ele>288.0</ele><time>2026-04-09T11:02:58.26Z</time></trkpt><trkpt lat="46.0135314" lon="10.9356005"><ele>288.0</ele><time>2026-04-09T11:03:00.26Z</time></trkpt><trkpt lat="46.013624" lon="10.9356016"><ele>288.0</ele><time>2026-04-09T11:03:03.261Z</time></trkpt><trkpt lat="46.0136503" lon="10.9357989"><ele>288.0</ele><time>2026-04-09T11:03:05.26Z</time></trkpt><trkpt lat="46.0136565" lon="10.9358924"><ele>288.0</ele><time>2026-04-09T11:03:06.255Z</time></trkpt><trkpt lat="46.0137049" lon="10.9360089"><ele>288.0</ele><time>2026-04-09T11:03:08.263Z</time></trkpt><trkpt lat="46.0137679" lon="10.936024"><ele>288.0</ele><time>2026-04-09T11:03:11.255Z</time></trkpt><trkpt lat="46.0137058" lon="10.9358504"><ele>288.0</ele><time>2026-04-09T11:03:13.255Z</time></trkpt><trkpt lat="46.0136733" lon="10.9357687"><ele>288.0</ele><time>2026-04-09T11:03:14.26Z</time></trkpt><trkpt lat="46.0136418" lon="10.9356837"><ele>288.0</ele><time>2026-04-09T11:03:15.243Z</time></trkpt><trkpt lat="46.0136188" lon="10.9355864"><ele>288.0</ele><time>2026-04-09T11:03:16.266Z</time></trkpt><trkpt lat="46.0136114" lon="10.9354452"><ele>288.0</ele><time>2026-04-09T11:03:18.254Z</time></trkpt><trkpt lat="46.0136593" lon="10.9353503"><ele>288.0</ele><time>2026-04-09T11:03:20.257Z</time></trkpt><trkpt lat="46.0137406" lon="10.9353803"><ele>288.0</ele><time>2026-04-09T11:03:22.259Z</time></trkpt><trkpt lat="46.0137726" lon="10.9354878"><ele>288.0</ele><time>2026-04-09T11:03:24.259Z</time></trkpt><trkpt lat="46.0137955" lon="10.9356736"><ele>288.0</ele><time>2026-04-09T11:03:26.264Z</time></trkpt><trkpt lat="46.0138089" lon="10.9357625"><ele>288.0</ele><time>2026-04-09T11:03:27.262Z</time></trkpt><trkpt lat="46.0138143" lon="10.9358531"><ele>288.0</ele><time>2026-04-09T11:03:28.26Z</time></trkpt><trkpt lat="46.0138433" lon="10.9360042"><ele>288.0</ele><time>2026-04-09T11:03:30.264Z</time></trkpt><trkpt lat="46.0139185" lon="10.936022"><ele>287.8</ele><time>2026-04-09T11:03:32.265Z</time></trkpt><trkpt lat="46.0140261" lon="10.9359592"><ele>287.6</ele><time>2026-04-09T11:03:34.263Z</time></trkpt><trkpt lat="46.0140983" lon="10.9358935"><ele>287.4</ele><time>2026-04-09T11:03:36.242Z</time></trkpt><trkpt lat="46.0141585" lon="10.935804"><ele>287.2</ele><time>2026-04-09T11:03:38.261Z</time></trkpt><trkpt lat="46.0142136" lon="10.9356842"><ele>287.0</ele><time>2026-04-09T11:03:40.252Z</time></trkpt><trkpt lat="46.0142079" lon="10.9355871"><ele>287.0</ele><time>2026-04-09T11:03:44.263Z</time></trkpt><trkpt lat="46.014141" lon="10.9356381"><ele>287.0</ele><time>2026-04-09T11:03:48.257Z</time></trkpt><trkpt lat="46.0141321" lon="10.9357417"><ele>287.0</ele><time>2026-04-09T11:03:51.245Z</time></trkpt><trkpt lat="46.0141184" lon="10.9358321"><ele>287.0</ele><time>2026-04-09T11:03:53.262Z</time></trkpt><trkpt lat="46.0140516" lon="10.9358892"><ele>287.0</ele><time>2026-04-09T11:03:55.259Z</time></trkpt><trkpt lat="46.0139372" lon="10.9358733"><ele>287.0</ele><time>2026-04-09T11:03:57.263Z</time></trkpt><trkpt lat="46.0138561" lon="10.935789"><ele>287.2</ele><time>2026-04-09T11:03:59.257Z</time></trkpt><trkpt lat="46.0138782" lon="10.9356932"><ele>287.4</ele><time>2026-04-09T11:04:01.265Z</time></trkpt><trkpt lat="46.0139561" lon="10.9357181"><ele>287.6</ele><time>2026-04-09T11:04:03.242Z</time></trkpt><trkpt lat="46.0140006" lon="10.9358402"><ele>287.8</ele><time>2026-04-09T11:04:05.256Z</time></trkpt><trkpt lat="46.0139414" lon="10.9356887"><ele>288.0</ele><time>2026-04-09T11:04:10.253Z</time></trkpt><trkpt lat="46.0138572" lon="10.9355863"><ele>288.0</ele><time>2026-04-09T11:04:11.264Z</time></trkpt><trkpt lat="46.0138038" lon="10.9354634"><ele>288.0</ele><time>2026-04-09T11:04:12.26Z</time></trkpt><trkpt lat="46.0137803" lon="10.9353707"><ele>288.0</ele><time>2026-04-09T11:04:13.254Z</time></trkpt><trkpt lat="46.0137676" lon="10.9352521"><ele>288.0</ele><time>2026-04-09T11:04:15.266Z</time></trkpt><trkpt lat="46.0138191" lon="10.9351964"><ele>288.0</ele><time>2026-04-09T11:04:17.263Z</time></trkpt><trkpt lat="46.0138991" lon="10.9353048"><ele>288.0</ele><time>2026-04-09T11:04:19.25Z</time></trkpt><trkpt lat="46.0139356" lon="10.9354046"><ele>288.0</ele><time>2026-04-09T11:04:20.246Z</time></trkpt><trkpt lat="46.0139932" lon="10.9354967"><ele>288.0</ele><time>2026-04-09T11:04:21.262Z</time></trkpt><trkpt lat="46.014046" lon="10.9355544"><ele>288.0</ele><time>2026-04-09T11:04:22.247Z</time></trkpt><trkpt lat="46.0141356" lon="10.9355467"><ele>288.0</ele><time>2026-04-09T11:04:24.257Z</time></trkpt><trkpt lat="46.0142449" lon="10.9354946"><ele>288.0</ele><time>2026-04-09T11:04:26.267Z</time></trkpt><trkpt lat="46.0143053" lon="10.9354501"><ele>288.0</ele><time>2026-04-09T11:04:27.264Z</time></trkpt><trkpt lat="46.0143796" lon="10.9353533"><ele>288.0</ele><time>2026-04-09T11:04:29.259Z</time></trkpt><trkpt lat="46.0143367" lon="10.9352836"><ele>288.0</ele><time>2026-04-09T11:04:31.268Z</time></trkpt><trkpt lat="46.0142478" lon="10.9353002"><ele>288.0</ele><time>2026-04-09T11:04:33.263Z</time></trkpt><trkpt lat="46.0141589" lon="10.9353286"><ele>288.0</ele><time>2026-04-09T11:04:35.263Z</time></trkpt><trkpt lat="46.0140553" lon="10.935246"><ele>288.0</ele><time>2026-04-09T11:04:37.261Z</time></trkpt><trkpt lat="46.0139914" lon="10.9352008"><ele>288.0</ele><time>2026-04-09T11:04:38.264Z</time></trkpt><trkpt lat="46.0139261" lon="10.9351601"><ele>288.0</ele><time>2026-04-09T11:04:39.254Z</time></trkpt><trkpt lat="46.0138712" lon="10.9350719"><ele>288.0</ele><time>2026-04-09T11:04:41.265Z</time></trkpt><trkpt lat="46.0139538" lon="10.9350051"><ele>288.0</ele><time>2026-04-09T11:04:43.245Z</time></trkpt><trkpt lat="46.0140195" lon="10.9350262"><ele>288.0</ele><time>2026-04-09T11:04:44.254Z</time></trkpt><trkpt lat="46.0140926" lon="10.9350726"><ele>288.0</ele><time>2026-04-09T11:04:45.256Z</time></trkpt><trkpt lat="46.0141539" lon="10.9351071"><ele>288.0</ele><time>2026-04-09T11:04:46.26Z</time></trkpt><trkpt lat="46.0142703" lon="10.9351439"><ele>289.8333333333333</ele><time>2026-04-09T11:04:48.254Z</time></trkpt><trkpt lat="46.0143353" lon="10.9351675"><ele>291.6666666666667</ele><time>2026-04-09T11:04:49.257Z</time></trkpt><trkpt lat="46.01442" lon="10.9352094"><ele>293.5</ele><time>2026-04-09T11:04:51.248Z</time></trkpt><trkpt lat="46.0144806" lon="10.9353132"><ele>295.33333333333337</ele><time>2026-04-09T11:04:53.25Z</time></trkpt><trkpt lat="46.0145109" lon="10.9354588"><ele>297.1666666666667</ele><time>2026-04-09T11:04:55.26Z</time></trkpt><trkpt lat="46.0144866" lon="10.9355519"><ele>299.0</ele><time>2026-04-09T11:04:57.26Z</time></trkpt><trkpt lat="46.0144189" lon="10.935649"><ele>299.0</ele><time>2026-04-09T11:05:00.252Z</time></trkpt><trkpt lat="46.0143847" lon="10.9358023"><ele>299.0</ele><time>2026-04-09T11:05:02.254Z</time></trkpt><trkpt lat="46.0143126" lon="10.9359102"><ele>299.0</ele><time>2026-04-09T11:05:04.269Z</time></trkpt><trkpt lat="46.0142266" lon="10.9360212"><ele>299.0</ele><time>2026-04-09T11:05:06.263Z</time></trkpt><trkpt lat="46.0141657" lon="10.9360538"><ele>299.0</ele><time>2026-04-09T11:05:07.262Z</time></trkpt><trkpt lat="46.0140822" lon="10.9360862"><ele>296.59999999999997</ele><time>2026-04-09T11:05:09.245Z</time></trkpt><trkpt lat="46.014008" lon="10.9361232"><ele>294.2</ele><time>2026-04-09T11:05:11.263Z</time></trkpt><trkpt lat="46.0138728" lon="10.9361183"><ele>291.79999999999995</ele><time>2026-04-09T11:05:13.251Z</time></trkpt><trkpt lat="46.0137632" lon="10.9360674"><ele>289.4</ele><time>2026-04-09T11:05:15.245Z</time></trkpt><trkpt lat="46.0136943" lon="10.936072"><ele>287.0</ele><time>2026-04-09T11:05:17.267Z</time></trkpt><trkpt lat="46.013657" lon="10.9361554"><ele>287.0</ele><time>2026-04-09T11:05:19.269Z</time></trkpt><trkpt lat="46.0135975" lon="10.9362415"><ele>287.0</ele><time>2026-04-09T11:05:21.248Z</time></trkpt><trkpt lat="46.0134877" lon="10.9362214"><ele>287.0</ele><time>2026-04-09T11:05:23.262Z</time></trkpt><trkpt lat="46.0134218" lon="10.936196"><ele>287.0</ele><time>2026-04-09T11:05:24.264Z</time></trkpt><trkpt lat="46.0133083" lon="10.9361559"><ele>287.0</ele><time>2026-04-09T11:05:26.272Z</time></trkpt><trkpt lat="46.0132501" lon="10.9360558"><ele>284.6</ele><time>2026-04-09T11:05:28.246Z</time></trkpt><trkpt lat="46.0132664" lon="10.9359316"><ele>282.2</ele><time>2026-04-09T11:05:30.271Z</time></trkpt><trkpt lat="46.0132971" lon="10.9358001"><ele>279.8</ele><time>2026-04-09T11:05:32.261Z</time></trkpt><trkpt lat="46.0132212" lon="10.935719"><ele>277.4</ele><time>2026-04-09T11:05:34.264Z</time></trkpt><trkpt lat="46.0131252" lon="10.9357104"><ele>275.0</ele><time>2026-04-09T11:05:36.265Z</time></trkpt><trkpt lat="46.0130326" lon="10.9356827"><ele>275.0</ele><time>2026-04-09T11:05:38.244Z</time></trkpt><trkpt lat="46.0129534" lon="10.9356667"><ele>275.0</ele><time>2026-04-09T11:05:40.26Z</time></trkpt><trkpt lat="46.0128872" lon="10.9356277"><ele>275.0</ele><time>2026-04-09T11:05:42.261Z</time></trkpt><trkpt lat="46.0128063" lon="10.9356416"><ele>275.0</ele><time>2026-04-09T11:05:44.261Z</time></trkpt><trkpt lat="46.012743" lon="10.93567"><ele>275.0</ele><time>2026-04-09T11:05:46.248Z</time></trkpt><trkpt lat="46.0126818" lon="10.9356274"><ele>275.0</ele><time>2026-04-09T11:05:48.257Z</time></trkpt><trkpt lat="46.0126747" lon="10.9355342"><ele>275.0</ele><time>2026-04-09T11:05:50.27Z</time></trkpt><trkpt lat="46.0127225" lon="10.9354278"><ele>275.0</ele><time>2026-04-09T11:05:52.246Z</time></trkpt><trkpt lat="46.012789" lon="10.9353484"><ele>275.0</ele><time>2026-04-09T11:05:54.265Z</time></trkpt><trkpt lat="46.0128269" lon="10.9352458"><ele>275.0</ele><time>2026-04-09T11:05:56.263Z</time></trkpt><trkpt lat="46.0127867" lon="10.9351656"><ele>275.0</ele><time>2026-04-09T11:05:58.261Z</time></trkpt><trkpt lat="46.0127284" lon="10.9352464"><ele>275.0</ele><time>2026-04-09T11:06:01.26Z</time></trkpt><trkpt lat="46.0127416" lon="10.9353796"><ele>275.0</ele><time>2026-04-09T11:06:03.249Z</time></trkpt><trkpt lat="46.0127848" lon="10.935492"><ele>275.0</ele><time>2026-04-09T11:06:06.263Z</time></trkpt><trkpt lat="46.0128805" lon="10.9355172"><ele>275.0</ele><time>2026-04-09T11:06:09.262Z</time></trkpt><trkpt lat="46.0129514" lon="10.9355324"><ele>275.0</ele><time>2026-04-09T11:06:10.266Z</time></trkpt><trkpt lat="46.0130309" lon="10.9355532"><ele>275.0</ele><time>2026-04-09T11:06:11.263Z</time></trkpt><trkpt lat="46.0131151" lon="10.9355732"><ele>275.0</ele><time>2026-04-09T11:06:12.265Z</time></trkpt><trkpt lat="46.0131954" lon="10.9355794"><ele>275.0</ele><time>2026-04-09T11:06:13.245Z</time></trkpt><trkpt lat="46.0132742" lon="10.9355582"><ele>277.6</ele><time>2026-04-09T11:06:14.26Z</time></trkpt><trkpt lat="46.0133589" lon="10.9355164"><ele>280.2</ele><time>2026-04-09T11:06:15.24Z</time></trkpt><trkpt lat="46.013448" lon="10.935453"><ele>282.8</ele><time>2026-04-09T11:06:16.252Z</time></trkpt><trkpt lat="46.0135269" lon="10.9353581"><ele>285.4</ele><time>2026-04-09T11:06:17.266Z</time></trkpt><trkpt lat="46.0135986" lon="10.93525"><ele>288.0</ele><time>2026-04-09T11:06:18.262Z</time></trkpt><trkpt lat="46.0136685" lon="10.9351346"><ele>288.1666666666667</ele><time>2026-04-09T11:06:19.259Z</time></trkpt><trkpt lat="46.0137442" lon="10.9350236"><ele>288.3333333333333</ele><time>2026-04-09T11:06:20.245Z</time></trkpt><trkpt lat="46.0138082" lon="10.934937"><ele>288.5</ele><time>2026-04-09T11:06:21.252Z</time></trkpt><trkpt lat="46.0138631" lon="10.9348719"><ele>288.66666666666663</ele><time>2026-04-09T11:06:22.266Z</time></trkpt><trkpt lat="46.0139235" lon="10.9348378"><ele>288.8333333333333</ele><time>2026-04-09T11:06:23.272Z</time></trkpt><trkpt lat="46.0139938" lon="10.9348436"><ele>289.0</ele><time>2026-04-09T11:06:24.244Z</time></trkpt><trkpt lat="46.0140985" lon="10.9348746"><ele>289.0</ele><time>2026-04-09T11:06:26.246Z</time></trkpt><trkpt lat="46.0141233" lon="10.9349599"><ele>289.0</ele><time>2026-04-09T11:06:31.244Z</time></trkpt><trkpt lat="46.0140009" lon="10.9349681"><ele>289.0</ele><time>2026-04-09T11:06:34.242Z</time></trkpt><trkpt lat="46.0138739" lon="10.934965"><ele>289.0</ele><time>2026-04-09T11:06:36.245Z</time></trkpt><trkpt lat="46.0137638" lon="10.9350352"><ele>289.0</ele><time>2026-04-09T11:06:38.26Z</time></trkpt><trkpt lat="46.0137117" lon="10.935095"><ele>288.8333333333333</ele><time>2026-04-09T11:06:39.247Z</time></trkpt><trkpt lat="46.0136577" lon="10.935174"><ele>288.66666666666663</ele><time>2026-04-09T11:06:40.26Z</time></trkpt><trkpt lat="46.0136101" lon="10.9352663"><ele>288.5</ele><time>2026-04-09T11:06:41.243Z</time></trkpt><trkpt lat="46.0135551" lon="10.9353553"><ele>288.3333333333333</ele><time>2026-04-09T11:06:42.266Z</time></trkpt><trkpt lat="46.0135006" lon="10.9354449"><ele>288.1666666666667</ele><time>2026-04-09T11:06:43.246Z</time></trkpt><trkpt lat="46.0134503" lon="10.9355226"><ele>288.0</ele><time>2026-04-09T11:06:44.265Z</time></trkpt><trkpt lat="46.0134093" lon="10.935592"><ele>288.0</ele><time>2026-04-09T11:06:45.258Z</time></trkpt><trkpt lat="46.0133675" lon="10.9357165"><ele>288.0</ele><time>2026-04-09T11:06:47.245Z</time></trkpt><trkpt lat="46.0134011" lon="10.9358992"><ele>288.0</ele><time>2026-04-09T11:06:49.257Z</time></trkpt><trkpt lat="46.0134095" lon="10.9359904"><ele>288.0</ele><time>2026-04-09T11:06:50.242Z</time></trkpt><trkpt lat="46.0134194" lon="10.9361307"><ele>288.0</ele><time>2026-04-09T11:06:52.257Z</time></trkpt><trkpt lat="46.0134931" lon="10.9361498"><ele>288.0</ele><time>2026-04-09T11:06:54.268Z</time></trkpt><trkpt lat="46.0135676" lon="10.9360232"><ele>288.0</ele><time>2026-04-09T11:06:56.26Z</time></trkpt><trkpt lat="46.0135769" lon="10.9358649"><ele>288.0</ele><time>2026-04-09T11:06:58.249Z</time></trkpt><trkpt lat="46.0135492" lon="10.9357367"><ele>288.0</ele><time>2026-04-09T11:06:59.251Z</time></trkpt><trkpt lat="46.0135233" lon="10.9356392"><ele>288.0</ele><time>2026-04-09T11:07:00.26Z</time></trkpt><trkpt lat="46.0135361" lon="10.9355315"><ele>288.0</ele><time>2026-04-09T11:07:02.251Z</time></trkpt><trkpt lat="46.0136193" lon="10.9355826"><ele>288.0</ele><time>2026-04-09T11:07:04.246Z</time></trkpt><trkpt lat="46.0136394" lon="10.9356827"><ele>288.0</ele><time>2026-04-09T11:07:05.245Z</time></trkpt><trkpt lat="46.0136393" lon="10.9358043"><ele>288.0</ele><time>2026-04-09T11:07:06.261Z</time></trkpt><trkpt lat="46.0136535" lon="10.935914"><ele>288.0</ele><time>2026-04-09T11:07:07.249Z</time></trkpt><trkpt lat="46.0136882" lon="10.9359966"><ele>288.0</ele><time>2026-04-09T11:07:08.243Z</time></trkpt><trkpt lat="46.0137864" lon="10.9360297"><ele>288.0</ele><time>2026-04-09T11:07:10.246Z</time></trkpt><trkpt lat="46.0138221" lon="10.9359311"><ele>288.0</ele><time>2026-04-09T11:07:12.255Z</time></trkpt><trkpt lat="46.0137751" lon="10.9358403"><ele>288.0</ele><time>2026-04-09T11:07:13.259Z</time></trkpt><trkpt lat="46.0137039" lon="10.9356815"><ele>288.0</ele><time>2026-04-09T11:07:15.258Z</time></trkpt><trkpt lat="46.0136711" lon="10.9355774"><ele>288.0</ele><time>2026-04-09T11:07:16.262Z</time></trkpt><trkpt lat="46.0136473" lon="10.9354882"><ele>288.0</ele><time>2026-04-09T11:07:17.265Z</time></trkpt><trkpt lat="46.0136264" lon="10.9354002"><ele>288.0</ele><time>2026-04-09T11:07:18.27Z</time></trkpt><trkpt lat="46.0136506" lon="10.9352969"><ele>288.0</ele><time>2026-04-09T11:07:20.263Z</time></trkpt><trkpt lat="46.0137318" lon="10.9353507"><ele>288.0</ele><time>2026-04-09T11:07:22.267Z</time></trkpt><trkpt lat="46.0137699" lon="10.9354346"><ele>288.0</ele><time>2026-04-09T11:07:24.256Z</time></trkpt><trkpt lat="46.0137857" lon="10.9355662"><ele>288.0</ele><time>2026-04-09T11:07:27.245Z</time></trkpt><trkpt lat="46.0137963" lon="10.9356969"><ele>288.0</ele><time>2026-04-09T11:07:29.267Z</time></trkpt><trkpt lat="46.0138172" lon="10.9358246"><ele>287.8333333333333</ele><time>2026-04-09T11:07:32.264Z</time></trkpt><trkpt lat="46.0138361" lon="10.9359567"><ele>287.6666666666667</ele><time>2026-04-09T11:07:34.275Z</time></trkpt><trkpt lat="46.0138999" lon="10.9360098"><ele>287.5</ele><time>2026-04-09T11:07:36.247Z</time></trkpt><trkpt lat="46.0139664" lon="10.9359931"><ele>287.33333333333337</ele><time>2026-04-09T11:07:37.265Z</time></trkpt><trkpt lat="46.0140405" lon="10.9359518"><ele>287.1666666666667</ele><time>2026-04-09T11:07:39.265Z</time></trkpt><trkpt lat="46.0140954" lon="10.9358952"><ele>287.0</ele><time>2026-04-09T11:07:41.264Z</time></trkpt><trkpt lat="46.0141762" lon="10.9357586"><ele>287.0</ele><time>2026-04-09T11:07:43.249Z</time></trkpt><trkpt lat="46.0142177" lon="10.9356546"><ele>287.0</ele><time>2026-04-09T11:07:45.277Z</time></trkpt><trkpt lat="46.0141899" lon="10.9355628"><ele>287.0</ele><time>2026-04-09T11:07:49.265Z</time></trkpt><trkpt lat="46.0141325" lon="10.9356008"><ele>287.0</ele><time>2026-04-09T11:07:52.258Z</time></trkpt><trkpt lat="46.0141012" lon="10.9356847"><ele>287.0</ele><time>2026-04-09T11:07:54.255Z</time></trkpt><trkpt lat="46.0140994" lon="10.9358225"><ele>287.0</ele><time>2026-04-09T11:07:57.265Z</time></trkpt><trkpt lat="46.0140349" lon="10.9359042"><ele>287.0</ele><time>2026-04-09T11:07:59.248Z</time></trkpt><trkpt lat="46.0139467" lon="10.9358979"><ele>287.0</ele><time>2026-04-09T11:08:01.26Z</time></trkpt><trkpt lat="46.0138491" lon="10.9358055"><ele>287.0</ele><time>2026-04-09T11:08:03.258Z</time></trkpt><trkpt lat="46.0138341" lon="10.9357089"><ele>287.0</ele><time>2026-04-09T11:08:05.244Z</time></trkpt><trkpt lat="46.0139219" lon="10.9356749"><ele>287.0</ele><time>2026-04-09T11:08:07.242Z</time></trkpt><trkpt lat="46.0139665" lon="10.9357426"><ele>287.0</ele><time>2026-04-09T11:08:08.253Z</time></trkpt><trkpt lat="46.0140098" lon="10.935842"><ele>287.2</ele><time>2026-04-09T11:08:10.271Z</time></trkpt><trkpt lat="46.0139841" lon="10.9356898"><ele>287.4</ele><time>2026-04-09T11:08:14.261Z</time></trkpt><trkpt lat="46.0139267" lon="10.9356108"><ele>287.6</ele><time>2026-04-09T11:08:15.261Z</time></trkpt><trkpt lat="46.0138649" lon="10.935524"><ele>287.8</ele><time>2026-04-09T11:08:16.26Z</time></trkpt><trkpt lat="46.0138156" lon="10.9354313"><ele>288.0</ele><time>2026-04-09T11:08:17.263Z</time></trkpt><trkpt lat="46.013765" lon="10.9353032"><ele>288.0</ele><time>2026-04-09T11:08:19.263Z</time></trkpt><trkpt lat="46.0137917" lon="10.9352162"><ele>288.0</ele><time>2026-04-09T11:08:21.27Z</time></trkpt><trkpt lat="46.0138773" lon="10.9352416"><ele>288.0</ele><time>2026-04-09T11:08:23.267Z</time></trkpt><trkpt lat="46.0139461" lon="10.9353654"><ele>288.0</ele><time>2026-04-09T11:08:25.261Z</time></trkpt><trkpt lat="46.0139932" lon="10.9354459"><ele>288.0</ele><time>2026-04-09T11:08:26.259Z</time></trkpt><trkpt lat="46.0140441" lon="10.9355188"><ele>288.0</ele><time>2026-04-09T11:08:27.251Z</time></trkpt><trkpt lat="46.0141353" lon="10.9355695"><ele>290.2</ele><time>2026-04-09T11:08:29.263Z</time></trkpt><trkpt lat="46.0142472" lon="10.9355367"><ele>292.4</ele><time>2026-04-09T11:08:31.261Z</time></trkpt><trkpt lat="46.0143113" lon="10.9354915"><ele>294.59999999999997</ele><time>2026-04-09T11:08:32.245Z</time></trkpt><trkpt lat="46.0143887" lon="10.9354206"><ele>296.8</ele><time>2026-04-09T11:08:34.262Z</time></trkpt><trkpt lat="46.0143224" lon="10.9353071"><ele>299.0</ele><time>2026-04-09T11:08:37.265Z</time></trkpt><trkpt lat="46.01422" lon="10.9353412"><ele>297.33333333333337</ele><time>2026-04-09T11:08:39.265Z</time></trkpt><trkpt lat="46.0141258" lon="10.9353694"><ele>295.6666666666667</ele><time>2026-04-09T11:08:41.267Z</time></trkpt><trkpt lat="46.0140675" lon="10.9353082"><ele>294.0</ele><time>2026-04-09T11:08:43.264Z</time></trkpt><trkpt lat="46.0139718" lon="10.9352382"><ele>292.3333333333333</ele><time>2026-04-09T11:08:45.248Z</time></trkpt><trkpt lat="46.0138801" lon="10.9351882"><ele>290.66666666666663</ele><time>2026-04-09T11:08:47.262Z</time></trkpt><trkpt lat="46.0138749" lon="10.9350914"><ele>289.0</ele><time>2026-04-09T11:08:49.264Z</time></trkpt><trkpt lat="46.0139692" lon="10.9350469"><ele>288.8333333333333</ele><time>2026-04-09T11:08:51.256Z</time></trkpt><trkpt lat="46.0140404" lon="10.9350792"><ele>288.66666666666663</ele><time>2026-04-09T11:08:52.261Z</time></trkpt><trkpt lat="46.0141084" lon="10.9351105"><ele>288.5</ele><time>2026-04-09T11:08:53.25Z</time></trkpt><trkpt lat="46.0142182" lon="10.9351565"><ele>288.3333333333333</ele><time>2026-04-09T11:08:55.256Z</time></trkpt><trkpt lat="46.0143176" lon="10.9351894"><ele>288.1666666666667</ele><time>2026-04-09T11:08:57.247Z</time></trkpt><trkpt lat="46.0143928" lon="10.9351846"><ele>288.0</ele><time>2026-04-09T11:08:59.253Z</time></trkpt><trkpt lat="46.0144375" lon="10.9350828"><ele>290.3333333333333</ele><time>2026-04-09T11:09:02.257Z</time></trkpt><trkpt lat="46.0144524" lon="10.934987"><ele>292.6666666666667</ele><time>2026-04-09T11:09:04.255Z</time></trkpt><trkpt lat="46.0145225" lon="10.9349352"><ele>295.0</ele><time>2026-04-09T11:09:07.263Z</time></trkpt><trkpt lat="46.0145508" lon="10.9348465"><ele>297.33333333333337</ele><time>2026-04-09T11:13:03.257Z</time></trkpt><trkpt lat="46.0146143" lon="10.9347488"><ele>299.6666666666667</ele><time>2026-04-09T11:14:56.251Z</time></trkpt><trkpt lat="46.0146241" lon="10.9346574"><ele>302.0</ele><time>2026-04-09T11:16:16.283Z</time></trkpt><trkpt lat="46.0147193" lon="10.9345552"><ele>302.0</ele><time>2026-04-09T11:21:04.264Z</time></trkpt><trkpt lat="46.0147792" lon="10.9345198"><ele>302.0</ele><time>2026-04-09T11:22:42.25Z</time></trkpt><trkpt lat="46.0148032" lon="10.9344138"><ele>302.0</ele><time>2026-04-09T11:27:14.241Z</time></trkpt><trkpt lat="46.0147887" lon="10.9343097"><ele>302.0</ele><time>2026-04-09T11:27:17.25Z</time></trkpt><trkpt lat="46.0148428" lon="10.9342282"><ele>302.0</ele><time>2026-04-09T11:27:20.243Z</time></trkpt><trkpt lat="46.0149089" lon="10.9341945"><ele>302.0</ele><time>2026-04-09T11:27:23.247Z</time></trkpt><trkpt lat="46.015006" lon="10.934204"><ele>302.0</ele><time>2026-04-09T11:28:04.295Z</time></trkpt><trkpt lat="46.0150165" lon="10.9343128"><ele>302.0</ele><time>2026-04-09T11:28:08.314Z</time></trkpt><trkpt lat="46.0149575" lon="10.9343838"><ele>302.0</ele><time>2026-04-09T11:28:10.25Z</time></trkpt><trkpt lat="46.0149403" lon="10.9344876"><ele>302.0</ele><time>2026-04-09T11:28:13.273Z</time></trkpt><trkpt lat="46.0149197" lon="10.9345929"><ele>302.0</ele><time>2026-04-09T11:28:16.325Z</time></trkpt><trkpt lat="46.0148406" lon="10.9346432"><ele>302.0</ele><time>2026-04-09T11:28:19.247Z</time></trkpt><trkpt lat="46.0147836" lon="10.9347115"><ele>302.0</ele><time>2026-04-09T11:28:22.274Z</time></trkpt><trkpt lat="46.0147865" lon="10.9348358"><ele>302.0</ele><time>2026-04-09T11:28:25.273Z</time></trkpt><trkpt lat="46.0147772" lon="10.9349488"><ele>302.0</ele><time>2026-04-09T11:28:30.241Z</time></trkpt><trkpt lat="46.0147305" lon="10.9350504"><ele>302.0</ele><time>2026-04-09T11:28:32.246Z</time></trkpt><trkpt lat="46.014669" lon="10.9351206"><ele>302.0</ele><time>2026-04-09T11:28:34.248Z</time></trkpt><trkpt lat="46.0146106" lon="10.9351883"><ele>302.0</ele><time>2026-04-09T11:28:36.25Z</time></trkpt><trkpt lat="46.0145513" lon="10.9352409"><ele>301.5</ele><time>2026-04-09T11:28:38.243Z</time></trkpt><trkpt lat="46.0145005" lon="10.9353076"><ele>301.0</ele><time>2026-04-09T11:28:41.244Z</time></trkpt><trkpt lat="46.0145188" lon="10.9354294"><ele>300.5</ele><time>2026-04-09T11:28:44.247Z</time></trkpt><trkpt lat="46.0145086" lon="10.9355198"><ele>300.0</ele><time>2026-04-09T11:28:46.246Z</time></trkpt><trkpt lat="46.0144572" lon="10.9355924"><ele>299.5</ele><time>2026-04-09T11:28:48.253Z</time></trkpt><trkpt lat="46.0144076" lon="10.935664"><ele>299.0</ele><time>2026-04-09T11:28:50.246Z</time></trkpt><trkpt lat="46.0143723" lon="10.9357832"><ele>299.0</ele><time>2026-04-09T11:28:52.261Z</time></trkpt><trkpt lat="46.0143273" lon="10.9358842"><ele>299.0</ele><time>2026-04-09T11:28:54.245Z</time></trkpt><trkpt lat="46.0142594" lon="10.9359778"><ele>299.0</ele><time>2026-04-09T11:28:56.253Z</time></trkpt><trkpt lat="46.0141832" lon="10.9360681"><ele>299.0</ele><time>2026-04-09T11:28:58.264Z</time></trkpt><trkpt lat="46.0141281" lon="10.9361266"><ele>299.0</ele><time>2026-04-09T11:29:00.257Z</time></trkpt><trkpt lat="46.0140235" lon="10.9361379"><ele>299.0</ele><time>2026-04-09T11:29:02.271Z</time></trkpt><trkpt lat="46.0139297" lon="10.9361709"><ele>297.0</ele><time>2026-04-09T11:29:04.254Z</time></trkpt><trkpt lat="46.0138434" lon="10.9362025"><ele>295.0</ele><time>2026-04-09T11:29:06.244Z</time></trkpt><trkpt lat="46.0137582" lon="10.9361776"><ele>293.0</ele><time>2026-04-09T11:29:08.265Z</time></trkpt><trkpt lat="46.0136983" lon="10.9361307"><ele>291.0</ele><time>2026-04-09T11:29:10.253Z</time></trkpt><trkpt lat="46.0136361" lon="10.9361038"><ele>289.0</ele><time>2026-04-09T11:29:13.239Z</time></trkpt><trkpt lat="46.0135953" lon="10.9361996"><ele>287.0</ele><time>2026-04-09T11:29:16.247Z</time></trkpt><trkpt lat="46.0135322" lon="10.9362577"><ele>287.0</ele><time>2026-04-09T11:29:18.263Z</time></trkpt><trkpt lat="46.0134452" lon="10.9362562"><ele>287.0</ele><time>2026-04-09T11:29:20.264Z</time></trkpt><trkpt lat="46.0133457" lon="10.9361981"><ele>287.0</ele><time>2026-04-09T11:29:22.256Z</time></trkpt><trkpt lat="46.0132805" lon="10.9361224"><ele>287.0</ele><time>2026-04-09T11:29:24.266Z</time></trkpt><trkpt lat="46.0132585" lon="10.9360145"><ele>287.0</ele><time>2026-04-09T11:29:26.242Z</time></trkpt><trkpt lat="46.0132841" lon="10.9358912"><ele>287.0</ele><time>2026-04-09T11:29:28.247Z</time></trkpt><trkpt lat="46.0132734" lon="10.93577"><ele>285.0</ele><time>2026-04-09T11:29:31.259Z</time></trkpt><trkpt lat="46.0131803" lon="10.9357244"><ele>283.0</ele><time>2026-04-09T11:29:34.248Z</time></trkpt><trkpt lat="46.0131032" lon="10.9357067"><ele>281.0</ele><time>2026-04-09T11:29:36.261Z</time></trkpt><trkpt lat="46.0130299" lon="10.9357036"><ele>279.0</ele><time>2026-04-09T11:29:38.256Z</time></trkpt><trkpt lat="46.0129467" lon="10.935678"><ele>277.0</ele><time>2026-04-09T11:29:41.244Z</time></trkpt><trkpt lat="46.0128838" lon="10.9356502"><ele>275.0</ele><time>2026-04-09T11:29:43.248Z</time></trkpt><trkpt lat="46.0128168" lon="10.9356721"><ele>275.0</ele><time>2026-04-09T11:29:45.246Z</time></trkpt><trkpt lat="46.0127526" lon="10.9357031"><ele>275.0</ele><time>2026-04-09T11:29:48.254Z</time></trkpt><trkpt lat="46.0127234" lon="10.9358531"><ele>275.0</ele><time>2026-04-09T11:29:52.267Z</time></trkpt><trkpt lat="46.0127347" lon="10.9359547"><ele>275.0</ele><time>2026-04-09T11:29:54.254Z</time></trkpt><trkpt lat="46.0127265" lon="10.9360813"><ele>275.0</ele><time>2026-04-09T11:29:57.256Z</time></trkpt><trkpt lat="46.0126772" lon="10.9361905"><ele>275.0</ele><time>2026-04-09T11:30:00.265Z</time></trkpt><trkpt lat="46.0126134" lon="10.9361787"><ele>274.2857142857143</ele><time>2026-04-09T11:30:02.251Z</time></trkpt><trkpt lat="46.0125796" lon="10.9360975"><ele>273.57142857142856</ele><time>2026-04-09T11:30:04.255Z</time></trkpt><trkpt lat="46.0125513" lon="10.9360112"><ele>272.85714285714283</ele><time>2026-04-09T11:30:07.265Z</time></trkpt><trkpt lat="46.0124998" lon="10.9359531"><ele>272.1428571428571</ele><time>2026-04-09T11:31:20.259Z</time></trkpt><trkpt lat="46.012538" lon="10.9360318"><ele>271.4285714285714</ele><time>2026-04-09T11:41:08.252Z</time></trkpt><trkpt lat="46.0126059" lon="10.9360237"><ele>270.7142857142857</ele><time>2026-04-09T11:41:32.247Z</time></trkpt><trkpt lat="46.0126486" lon="10.9361002"><ele>270.0</ele><time>2026-04-09T11:41:40.243Z</time></trkpt><trkpt lat="46.0126596" lon="10.93619"><ele>270.0</ele><time>2026-04-09T11:41:58.247Z</time></trkpt><trkpt lat="46.0126613" lon="10.9362882"><ele>270.0</ele><time>2026-04-09T11:42:18.245Z</time></trkpt><trkpt lat="46.0126416" lon="10.9362006"><ele>270.0</ele><time>2026-04-09T11:42:33.282Z</time></trkpt><trkpt lat="46.0126013" lon="10.9361271"><ele>270.0</ele><time>2026-04-09T11:42:42.29Z</time></trkpt><trkpt lat="46.0125594" lon="10.9360478"><ele>270.0</ele><time>2026-04-09T11:42:50.247Z</time></trkpt><trkpt lat="46.0125204" lon="10.9359708"><ele>270.0</ele><time>2026-04-09T11:42:58.253Z</time></trkpt><trkpt lat="46.0125868" lon="10.9360408"><ele>270.0</ele><time>2026-04-09T11:48:01.251Z</time></trkpt><trkpt lat="46.0125331" lon="10.9361492"><ele>270.0</ele><time>2026-04-09T11:48:04.247Z</time></trkpt><trkpt lat="46.0125736" lon="10.9362227"><ele>270.0</ele><time>2026-04-09T11:48:06.24Z</time></trkpt><trkpt lat="46.0126395" lon="10.9362323"><ele>270.0</ele><time>2026-04-09T11:48:08.263Z</time></trkpt><trkpt lat="46.012676" lon="10.9361458"><ele>270.0</ele><time>2026-04-09T11:48:10.262Z</time></trkpt><trkpt lat="46.012695" lon="10.9360469"><ele>270.0</ele><time>2026-04-09T11:48:12.171Z</time></trkpt><trkpt lat="46.0127149" lon="10.9359569"><ele>270.0</ele><time>2026-04-09T11:48:13.246Z</time></trkpt><trkpt lat="46.0127139" lon="10.935782"><ele>270.8333333333333</ele><time>2026-04-09T11:48:15.254Z</time></trkpt><trkpt lat="46.0126606" lon="10.9356967"><ele>271.6666666666667</ele><time>2026-04-09T11:48:18.257Z</time></trkpt><trkpt lat="46.0126486" lon="10.9355818"><ele>272.5</ele><time>2026-04-09T11:48:21.255Z</time></trkpt><trkpt lat="46.0126922" lon="10.9355089"><ele>273.33333333333337</ele><time>2026-04-09T11:48:24.264Z</time></trkpt><trkpt lat="46.0127618" lon="10.9355378"><ele>274.1666666666667</ele><time>2026-04-09T11:48:27.262Z</time></trkpt><trkpt lat="46.0128555" lon="10.9355634"><ele>275.0</ele><time>2026-04-09T11:48:29.265Z</time></trkpt><trkpt lat="46.0129278" lon="10.9355736"><ele>275.0</ele><time>2026-04-09T11:48:30.255Z</time></trkpt><trkpt lat="46.0130117" lon="10.9355908"><ele>275.0</ele><time>2026-04-09T11:48:31.253Z</time></trkpt><trkpt lat="46.013095" lon="10.9356099"><ele>275.0</ele><time>2026-04-09T11:48:32.255Z</time></trkpt><trkpt lat="46.0131895" lon="10.9356087"><ele>275.0</ele><time>2026-04-09T11:48:33.25Z</time></trkpt><trkpt lat="46.0132781" lon="10.9355878"><ele>275.0</ele><time>2026-04-09T11:48:34.253Z</time></trkpt><trkpt lat="46.0133692" lon="10.9355407"><ele>277.6</ele><time>2026-04-09T11:48:35.266Z</time></trkpt><trkpt lat="46.0134674" lon="10.935468"><ele>280.2</ele><time>2026-04-09T11:48:36.258Z</time></trkpt><trkpt lat="46.0135501" lon="10.9353615"><ele>282.8</ele><time>2026-04-09T11:48:37.262Z</time></trkpt><trkpt lat="46.0136203" lon="10.9352433"><ele>285.4</ele><time>2026-04-09T11:48:38.282Z</time></trkpt><trkpt lat="46.0136762" lon="10.9351252"><ele>288.0</ele><time>2026-04-09T11:48:39.262Z</time></trkpt><trkpt lat="46.0137313" lon="10.9350041"><ele>288.1666666666667</ele><time>2026-04-09T11:48:40.259Z</time></trkpt><trkpt lat="46.0137845" lon="10.9349005"><ele>288.3333333333333</ele><time>2026-04-09T11:48:41.278Z</time></trkpt><trkpt lat="46.0138479" lon="10.9348286"><ele>288.5</ele><time>2026-04-09T11:48:42.263Z</time></trkpt><trkpt lat="46.0139198" lon="10.9347984"><ele>288.66666666666663</ele><time>2026-04-09T11:48:43.261Z</time></trkpt><trkpt lat="46.013989" lon="10.9347961"><ele>288.8333333333333</ele><time>2026-04-09T11:48:44.251Z</time></trkpt><trkpt lat="46.0140868" lon="10.9347898"><ele>289.0</ele><time>2026-04-09T11:48:46.27Z</time></trkpt><trkpt lat="46.0141385" lon="10.9348826"><ele>289.0</ele><time>2026-04-09T11:48:49.257Z</time></trkpt><trkpt lat="46.0140286" lon="10.9349723"><ele>289.0</ele><time>2026-04-09T11:48:51.258Z</time></trkpt><trkpt lat="46.0139535" lon="10.9349653"><ele>289.0</ele><time>2026-04-09T11:48:52.26Z</time></trkpt><trkpt lat="46.0138338" lon="10.9349942"><ele>289.0</ele><time>2026-04-09T11:48:54.262Z</time></trkpt><trkpt lat="46.0137693" lon="10.9350488"><ele>289.0</ele><time>2026-04-09T11:48:55.261Z</time></trkpt><trkpt lat="46.0137131" lon="10.9351184"><ele>288.8333333333333</ele><time>2026-04-09T11:48:56.257Z</time></trkpt><trkpt lat="46.0136517" lon="10.9352251"><ele>288.66666666666663</ele><time>2026-04-09T11:48:57.263Z</time></trkpt><trkpt lat="46.0135898" lon="10.9353419"><ele>288.5</ele><time>2026-04-09T11:48:58.255Z</time></trkpt><trkpt lat="46.0135329" lon="10.9354431"><ele>288.3333333333333</ele><time>2026-04-09T11:48:59.254Z</time></trkpt><trkpt lat="46.0134764" lon="10.9355283"><ele>288.1666666666667</ele><time>2026-04-09T11:49:00.261Z</time></trkpt><trkpt lat="46.0134226" lon="10.9356051"><ele>288.0</ele><time>2026-04-09T11:49:01.255Z</time></trkpt><trkpt lat="46.0133682" lon="10.9357448"><ele>288.0</ele><time>2026-04-09T11:49:03.254Z</time></trkpt><trkpt lat="46.0133743" lon="10.935843"><ele>288.0</ele><time>2026-04-09T11:49:04.258Z</time></trkpt><trkpt lat="46.0133894" lon="10.9359339"><ele>288.0</ele><time>2026-04-09T11:49:05.25Z</time></trkpt><trkpt lat="46.0133917" lon="10.936032"><ele>288.0</ele><time>2026-04-09T11:49:06.264Z</time></trkpt><trkpt lat="46.0134006" lon="10.936186"><ele>288.0</ele><time>2026-04-09T11:49:08.27Z</time></trkpt><trkpt lat="46.013478" lon="10.9362134"><ele>288.0</ele><time>2026-04-09T11:49:10.257Z</time></trkpt><trkpt lat="46.013555" lon="10.9361141"><ele>288.0</ele><time>2026-04-09T11:49:12.26Z</time></trkpt><trkpt lat="46.0135615" lon="10.9360236"><ele>288.0</ele><time>2026-04-09T11:49:13.255Z</time></trkpt><trkpt lat="46.0135498" lon="10.935916"><ele>288.0</ele><time>2026-04-09T11:49:14.26Z</time></trkpt><trkpt lat="46.0135227" lon="10.9357898"><ele>288.0</ele><time>2026-04-09T11:49:15.27Z</time></trkpt><trkpt lat="46.0135031" lon="10.9357023"><ele>288.0</ele><time>2026-04-09T11:49:16.26Z</time></trkpt><trkpt lat="46.0135144" lon="10.9355726"><ele>288.0</ele><time>2026-04-09T11:49:18.269Z</time></trkpt><trkpt lat="46.0135943" lon="10.9356057"><ele>288.0</ele><time>2026-04-09T11:49:20.263Z</time></trkpt><trkpt lat="46.0136175" lon="10.9356915"><ele>288.0</ele><time>2026-04-09T11:49:21.258Z</time></trkpt><trkpt lat="46.0136262" lon="10.9358127"><ele>288.0</ele><time>2026-04-09T11:49:22.258Z</time></trkpt><trkpt lat="46.0136357" lon="10.9359343"><ele>288.0</ele><time>2026-04-09T11:49:23.256Z</time></trkpt><trkpt lat="46.0136637" lon="10.936021"><ele>288.0</ele><time>2026-04-09T11:49:24.253Z</time></trkpt><trkpt lat="46.013744" lon="10.9360437"><ele>288.0</ele><time>2026-04-09T11:49:26.253Z</time></trkpt><trkpt lat="46.0137724" lon="10.935894"><ele>288.0</ele><time>2026-04-09T11:49:28.273Z</time></trkpt><trkpt lat="46.0137038" lon="10.935749"><ele>288.0</ele><time>2026-04-09T11:49:30.267Z</time></trkpt><trkpt lat="46.01367" lon="10.9356625"><ele>288.0</ele><time>2026-04-09T11:49:31.269Z</time></trkpt><trkpt lat="46.013624" lon="10.9354897"><ele>288.0</ele><time>2026-04-09T11:49:33.261Z</time></trkpt><trkpt lat="46.013645" lon="10.9353637"><ele>288.0</ele><time>2026-04-09T11:49:35.261Z</time></trkpt><trkpt lat="46.0137119" lon="10.9353533"><ele>288.0</ele><time>2026-04-09T11:49:37.26Z</time></trkpt><trkpt lat="46.0137551" lon="10.9354795"><ele>288.0</ele><time>2026-04-09T11:49:39.256Z</time></trkpt><trkpt lat="46.0137726" lon="10.9356645"><ele>288.0</ele><time>2026-04-09T11:49:41.256Z</time></trkpt><trkpt lat="46.013779" lon="10.935782"><ele>288.0</ele><time>2026-04-09T11:49:42.252Z</time></trkpt><trkpt lat="46.0137785" lon="10.9358776"><ele>288.0</ele><time>2026-04-09T11:49:43.261Z</time></trkpt><trkpt lat="46.0138162" lon="10.9359959"><ele>287.8333333333333</ele><time>2026-04-09T11:49:45.258Z</time></trkpt><trkpt lat="46.0138882" lon="10.9360578"><ele>287.6666666666667</ele><time>2026-04-09T11:49:47.257Z</time></trkpt><trkpt lat="46.0139892" lon="10.9360206"><ele>287.5</ele><time>2026-04-09T11:49:49.256Z</time></trkpt><trkpt lat="46.0140464" lon="10.9359557"><ele>287.33333333333337</ele><time>2026-04-09T11:49:51.263Z</time></trkpt><trkpt lat="46.0140998" lon="10.9358883"><ele>287.1666666666667</ele><time>2026-04-09T11:49:53.248Z</time></trkpt><trkpt lat="46.0141709" lon="10.9357719"><ele>287.0</ele><time>2026-04-09T11:49:55.242Z</time></trkpt><trkpt lat="46.014236" lon="10.9356599"><ele>287.0</ele><time>2026-04-09T11:49:57.247Z</time></trkpt><trkpt lat="46.0142008" lon="10.9355806"><ele>287.0</ele><time>2026-04-09T11:50:01.261Z</time></trkpt><trkpt lat="46.0141416" lon="10.9356272"><ele>287.0</ele><time>2026-04-09T11:50:03.265Z</time></trkpt><trkpt lat="46.0141036" lon="10.9356998"><ele>287.0</ele><time>2026-04-09T11:50:05.251Z</time></trkpt><trkpt lat="46.0141154" lon="10.9358034"><ele>287.0</ele><time>2026-04-09T11:50:07.249Z</time></trkpt><trkpt lat="46.0141315" lon="10.935903"><ele>287.0</ele><time>2026-04-09T11:50:09.264Z</time></trkpt><trkpt lat="46.0140599" lon="10.9359702"><ele>287.0</ele><time>2026-04-09T11:50:11.264Z</time></trkpt><trkpt lat="46.013966" lon="10.9359629"><ele>287.1666666666667</ele><time>2026-04-09T11:50:13.252Z</time></trkpt><trkpt lat="46.013917" lon="10.9358731"><ele>287.33333333333337</ele><time>2026-04-09T11:50:14.261Z</time></trkpt><trkpt lat="46.0138823" lon="10.9357919"><ele>287.5</ele><time>2026-04-09T11:50:15.258Z</time></trkpt><trkpt lat="46.0138764" lon="10.9356751"><ele>287.6666666666667</ele><time>2026-04-09T11:50:17.256Z</time></trkpt><trkpt lat="46.0139557" lon="10.9357412"><ele>287.8333333333333</ele><time>2026-04-09T11:50:20.263Z</time></trkpt><trkpt lat="46.0139859" lon="10.935822"><ele>288.0</ele><time>2026-04-09T11:50:23.257Z</time></trkpt><trkpt lat="46.014035" lon="10.9357442"><ele>288.0</ele><time>2026-04-09T11:50:35.261Z</time></trkpt><trkpt lat="46.0139564" lon="10.9356114"><ele>288.0</ele><time>2026-04-09T11:50:37.248Z</time></trkpt><trkpt lat="46.0139078" lon="10.9355359"><ele>288.0</ele><time>2026-04-09T11:50:38.257Z</time></trkpt><trkpt lat="46.0138565" lon="10.9354464"><ele>288.0</ele><time>2026-04-09T11:50:39.267Z</time></trkpt><trkpt lat="46.0138194" lon="10.9353501"><ele>288.0</ele><time>2026-04-09T11:50:40.267Z</time></trkpt><trkpt lat="46.0137899" lon="10.9352366"><ele>288.0</ele><time>2026-04-09T11:50:42.264Z</time></trkpt><trkpt lat="46.0138888" lon="10.9352428"><ele>288.0</ele><time>2026-04-09T11:50:45.258Z</time></trkpt><trkpt lat="46.0139294" lon="10.935325"><ele>288.0</ele><time>2026-04-09T11:50:46.258Z</time></trkpt><trkpt lat="46.0139654" lon="10.9354179"><ele>288.0</ele><time>2026-04-09T11:50:47.254Z</time></trkpt><trkpt lat="46.0140084" lon="10.9355039"><ele>288.0</ele><time>2026-04-09T11:50:48.26Z</time></trkpt><trkpt lat="46.0140927" lon="10.9355729"><ele>288.0</ele><time>2026-04-09T11:50:50.258Z</time></trkpt><trkpt lat="46.0141839" lon="10.9355196"><ele>288.0</ele><time>2026-04-09T11:50:52.257Z</time></trkpt><trkpt lat="46.0142919" lon="10.9354446"><ele>288.0</ele><time>2026-04-09T11:50:54.277Z</time></trkpt><trkpt lat="46.014346" lon="10.9353704"><ele>288.0</ele><time>2026-04-09T11:50:56.252Z</time></trkpt><trkpt lat="46.0142762" lon="10.9352942"><ele>288.0</ele><time>2026-04-09T11:50:59.267Z</time></trkpt><trkpt lat="46.0141852" lon="10.9353509"><ele>288.0</ele><time>2026-04-09T11:51:01.256Z</time></trkpt><trkpt lat="46.0140909" lon="10.9353188"><ele>288.0</ele><time>2026-04-09T11:51:03.256Z</time></trkpt><trkpt lat="46.0140365" lon="10.9352547"><ele>288.0</ele><time>2026-04-09T11:51:04.263Z</time></trkpt><trkpt lat="46.0139746" lon="10.9352018"><ele>288.0</ele><time>2026-04-09T11:51:05.257Z</time></trkpt><trkpt lat="46.0139195" lon="10.935156"><ele>288.0</ele><time>2026-04-09T11:51:06.265Z</time></trkpt><trkpt lat="46.0138913" lon="10.9350463"><ele>288.0</ele><time>2026-04-09T11:51:08.257Z</time></trkpt><trkpt lat="46.0139852" lon="10.9350123"><ele>288.0</ele><time>2026-04-09T11:51:10.265Z</time></trkpt><trkpt lat="46.0140473" lon="10.9350594"><ele>288.0</ele><time>2026-04-09T11:51:11.257Z</time></trkpt><trkpt lat="46.0141081" lon="10.9351001"><ele>288.0</ele><time>2026-04-09T11:51:12.25Z</time></trkpt><trkpt lat="46.0142348" lon="10.9351577"><ele>289.8333333333333</ele><time>2026-04-09T11:51:14.255Z</time></trkpt><trkpt lat="46.0143099" lon="10.9351827"><ele>291.6666666666667</ele><time>2026-04-09T11:51:15.258Z</time></trkpt><trkpt lat="46.0143746" lon="10.9351961"><ele>293.5</ele><time>2026-04-09T11:51:16.246Z</time></trkpt><trkpt lat="46.0144569" lon="10.9352496"><ele>295.33333333333337</ele><time>2026-04-09T11:51:18.266Z</time></trkpt><trkpt lat="46.014494" lon="10.9353914"><ele>297.1666666666667</ele><time>2026-04-09T11:51:20.265Z</time></trkpt><trkpt lat="46.0144832" lon="10.935532"><ele>299.0</ele><time>2026-04-09T11:51:22.263Z</time></trkpt><trkpt lat="46.0144293" lon="10.9356288"><ele>299.0</ele><time>2026-04-09T11:51:24.258Z</time></trkpt><trkpt lat="46.0143912" lon="10.9357618"><ele>299.0</ele><time>2026-04-09T11:51:26.258Z</time></trkpt><trkpt lat="46.0143538" lon="10.9358827"><ele>299.0</ele><time>2026-04-09T11:51:28.263Z</time></trkpt><trkpt lat="46.0142701" lon="10.9359953"><ele>299.0</ele><time>2026-04-09T11:51:30.262Z</time></trkpt><trkpt lat="46.0142154" lon="10.9360537"><ele>299.0</ele><time>2026-04-09T11:51:31.263Z</time></trkpt><trkpt lat="46.0141188" lon="10.9361349"><ele>296.59999999999997</ele><time>2026-04-09T11:51:33.259Z</time></trkpt><trkpt lat="46.0140071" lon="10.9361792"><ele>294.2</ele><time>2026-04-09T11:51:35.257Z</time></trkpt><trkpt lat="46.0139142" lon="10.9362225"><ele>291.79999999999995</ele><time>2026-04-09T11:51:37.265Z</time></trkpt><trkpt lat="46.0138003" lon="10.9362307"><ele>289.4</ele><time>2026-04-09T11:51:39.259Z</time></trkpt><trkpt lat="46.0137034" lon="10.9361371"><ele>287.0</ele><time>2026-04-09T11:51:41.24Z</time></trkpt><trkpt lat="46.0136282" lon="10.9361323"><ele>287.0</ele><time>2026-04-09T11:51:43.257Z</time></trkpt><trkpt lat="46.0135903" lon="10.9362293"><ele>287.0</ele><time>2026-04-09T11:51:45.258Z</time></trkpt><trkpt lat="46.0135122" lon="10.9362893"><ele>287.0</ele><time>2026-04-09T11:51:47.263Z</time></trkpt><trkpt lat="46.0134448" lon="10.9362632"><ele>287.0</ele><time>2026-04-09T11:51:48.257Z</time></trkpt><trkpt lat="46.013374" lon="10.936215"><ele>287.0</ele><time>2026-04-09T11:51:49.261Z</time></trkpt><trkpt lat="46.0133123" lon="10.9361598"><ele>287.0</ele><time>2026-04-09T11:51:50.257Z</time></trkpt><trkpt lat="46.0132531" lon="10.9360365"><ele>285.0</ele><time>2026-04-09T11:51:52.274Z</time></trkpt><trkpt lat="46.0132732" lon="10.9358895"><ele>283.0</ele><time>2026-04-09T11:51:54.275Z</time></trkpt><trkpt lat="46.0132863" lon="10.935772"><ele>281.0</ele><time>2026-04-09T11:51:56.262Z</time></trkpt><trkpt lat="46.0132359" lon="10.9356842"><ele>279.0</ele><time>2026-04-09T11:51:58.258Z</time></trkpt><trkpt lat="46.0131464" lon="10.9356622"><ele>277.0</ele><time>2026-04-09T11:52:00.254Z</time></trkpt><trkpt lat="46.0130629" lon="10.9356556"><ele>275.0</ele><time>2026-04-09T11:52:02.242Z</time></trkpt><trkpt lat="46.0129866" lon="10.935654"><ele>275.0</ele><time>2026-04-09T11:52:04.253Z</time></trkpt><trkpt lat="46.0129108" lon="10.9356212"><ele>275.0</ele><time>2026-04-09T11:52:06.254Z</time></trkpt><trkpt lat="46.0128417" lon="10.9356567"><ele>275.0</ele><time>2026-04-09T11:52:08.259Z</time></trkpt><trkpt lat="46.0127746" lon="10.9356888"><ele>275.0</ele><time>2026-04-09T11:52:10.255Z</time></trkpt><trkpt lat="46.0127015" lon="10.9356884"><ele>275.0</ele><time>2026-04-09T11:52:12.258Z</time></trkpt><trkpt lat="46.0126854" lon="10.9355747"><ele>275.0</ele><time>2026-04-09T11:52:14.251Z</time></trkpt><trkpt lat="46.0127023" lon="10.9354868"><ele>275.0</ele><time>2026-04-09T11:52:16.251Z</time></trkpt><trkpt lat="46.0127692" lon="10.9354896"><ele>275.0</ele><time>2026-04-09T11:52:19.265Z</time></trkpt><trkpt lat="46.0128425" lon="10.935517"><ele>275.0</ele><time>2026-04-09T11:52:21.266Z</time></trkpt><trkpt lat="46.0129168" lon="10.9355328"><ele>275.0</ele><time>2026-04-09T11:52:22.257Z</time></trkpt><trkpt lat="46.0129994" lon="10.9355704"><ele>275.0</ele><time>2026-04-09T11:52:23.263Z</time></trkpt><trkpt lat="46.0130812" lon="10.9356008"><ele>275.0</ele><time>2026-04-09T11:52:24.254Z</time></trkpt><trkpt lat="46.013175" lon="10.9356046"><ele>275.0</ele><time>2026-04-09T11:52:25.263Z</time></trkpt><trkpt lat="46.013274" lon="10.935578"><ele>277.6</ele><time>2026-04-09T11:52:26.259Z</time></trkpt><trkpt lat="46.0133702" lon="10.9355305"><ele>280.2</ele><time>2026-04-09T11:52:27.25Z</time></trkpt><trkpt lat="46.0134511" lon="10.9354654"><ele>282.8</ele><time>2026-04-09T11:52:28.256Z</time></trkpt><trkpt lat="46.0135281" lon="10.9353728"><ele>285.4</ele><time>2026-04-09T11:52:29.265Z</time></trkpt><trkpt lat="46.0135995" lon="10.935251"><ele>288.0</ele><time>2026-04-09T11:52:30.262Z</time></trkpt><trkpt lat="46.0136688" lon="10.9351371"><ele>288.1666666666667</ele><time>2026-04-09T11:52:31.256Z</time></trkpt><trkpt lat="46.0137339" lon="10.9350275"><ele>288.3333333333333</ele><time>2026-04-09T11:52:32.273Z</time></trkpt><trkpt lat="46.013786" lon="10.9349285"><ele>288.5</ele><time>2026-04-09T11:52:33.242Z</time></trkpt><trkpt lat="46.0138499" lon="10.9348544"><ele>288.66666666666663</ele><time>2026-04-09T11:52:34.262Z</time></trkpt><trkpt lat="46.0139188" lon="10.9348299"><ele>288.8333333333333</ele><time>2026-04-09T11:52:35.253Z</time></trkpt><trkpt lat="46.0139958" lon="10.9348416"><ele>289.0</ele><time>2026-04-09T11:52:36.255Z</time></trkpt><trkpt lat="46.0140945" lon="10.9348481"><ele>289.0</ele><time>2026-04-09T11:52:38.254Z</time></trkpt><trkpt lat="46.0141277" lon="10.9349613"><ele>289.0</ele><time>2026-04-09T11:52:41.266Z</time></trkpt><trkpt lat="46.0140081" lon="10.9350008"><ele>289.0</ele><time>2026-04-09T11:52:43.263Z</time></trkpt><trkpt lat="46.0139433" lon="10.9349804"><ele>289.0</ele><time>2026-04-09T11:52:44.262Z</time></trkpt><trkpt lat="46.0138236" lon="10.935011"><ele>289.0</ele><time>2026-04-09T11:52:46.266Z</time></trkpt><trkpt lat="46.0137663" lon="10.9350762"><ele>288.8</ele><time>2026-04-09T11:52:47.27Z</time></trkpt><trkpt lat="46.0137099" lon="10.9351875"><ele>288.59999999999997</ele><time>2026-04-09T11:52:48.243Z</time></trkpt><trkpt lat="46.0136327" lon="10.9353151"><ele>288.4</ele><time>2026-04-09T11:52:49.255Z</time></trkpt><trkpt lat="46.0135664" lon="10.9354211"><ele>288.2</ele><time>2026-04-09T11:52:50.265Z</time></trkpt><trkpt lat="46.0135039" lon="10.9355108"><ele>288.0</ele><time>2026-04-09T11:52:51.266Z</time></trkpt><trkpt lat="46.0134536" lon="10.935576"><ele>288.0</ele><time>2026-04-09T11:52:52.265Z</time></trkpt><trkpt lat="46.0134046" lon="10.9357423"><ele>288.0</ele><time>2026-04-09T11:52:54.269Z</time></trkpt><trkpt lat="46.0134134" lon="10.9358466"><ele>288.0</ele><time>2026-04-09T11:52:55.256Z</time></trkpt><trkpt lat="46.0134256" lon="10.9359602"><ele>288.0</ele><time>2026-04-09T11:52:56.26Z</time></trkpt><trkpt lat="46.0134254" lon="10.9360544"><ele>288.0</ele><time>2026-04-09T11:52:57.271Z</time></trkpt><trkpt lat="46.0134256" lon="10.9361842"><ele>288.0</ele><time>2026-04-09T11:52:59.251Z</time></trkpt><trkpt lat="46.0135089" lon="10.9361375"><ele>288.00000000000006</ele><time>2026-04-09T11:53:01.26Z</time></trkpt><trkpt lat="46.0135443" lon="10.9360541"><ele>288.0</ele><time>2026-04-09T11:53:02.263Z</time></trkpt><trkpt lat="46.013544" lon="10.9359554"><ele>288.0</ele><time>2026-04-09T11:53:03.262Z</time></trkpt><trkpt lat="46.013536" lon="10.9358594"><ele>288.0</ele><time>2026-04-09T11:53:04.254Z</time></trkpt><trkpt lat="46.0135343" lon="10.9357669"><ele>288.0</ele><time>2026-04-09T11:53:05.266Z</time></trkpt><trkpt lat="46.0135154" lon="10.9356673"><ele>288.00000000000006</ele><time>2026-04-09T11:53:06.261Z</time></trkpt><trkpt lat="46.0135162" lon="10.9355433"><ele>288.0</ele><time>2026-04-09T11:53:08.253Z</time></trkpt><trkpt lat="46.0135859" lon="10.9355331"><ele>288.0</ele><time>2026-04-09T11:53:10.264Z</time></trkpt><trkpt lat="46.0136382" lon="10.9357354"><ele>288.0</ele><time>2026-04-09T11:53:12.258Z</time></trkpt><trkpt lat="46.0136458" lon="10.9358571"><ele>288.0</ele><time>2026-04-09T11:53:13.252Z</time></trkpt><trkpt lat="46.0136821" lon="10.9359497"><ele>288.0</ele><time>2026-04-09T11:53:14.255Z</time></trkpt><trkpt lat="46.0137652" lon="10.9360208"><ele>288.0</ele><time>2026-04-09T11:53:16.257Z</time></trkpt><trkpt lat="46.0137622" lon="10.9358455"><ele>288.0</ele><time>2026-04-09T11:53:19.248Z</time></trkpt><trkpt lat="46.0137345" lon="10.9357543"><ele>288.0</ele><time>2026-04-09T11:53:20.259Z</time></trkpt><trkpt lat="46.0137012" lon="10.9356521"><ele>288.0</ele><time>2026-04-09T11:53:21.267Z</time></trkpt><trkpt lat="46.0136674" lon="10.9355538"><ele>288.0</ele><time>2026-04-09T11:53:22.263Z</time></trkpt><trkpt lat="46.013639" lon="10.9353963"><ele>288.0</ele><time>2026-04-09T11:53:24.256Z</time></trkpt><trkpt lat="46.0136826" lon="10.9353023"><ele>288.0</ele><time>2026-04-09T11:53:26.273Z</time></trkpt><trkpt lat="46.0137676" lon="10.9354072"><ele>288.0</ele><time>2026-04-09T11:53:28.259Z</time></trkpt><trkpt lat="46.0138136" lon="10.9355686"><ele>288.0</ele><time>2026-04-09T11:53:30.277Z</time></trkpt><trkpt lat="46.0138204" lon="10.9356642"><ele>288.0</ele><time>2026-04-09T11:53:31.26Z</time></trkpt><trkpt lat="46.0138277" lon="10.9358459"><ele>288.0</ele><time>2026-04-09T11:53:33.252Z</time></trkpt><trkpt lat="46.0138618" lon="10.9359753"><ele>288.0</ele><time>2026-04-09T11:53:35.262Z</time></trkpt><trkpt lat="46.0139223" lon="10.9360225"><ele>287.8333333333333</ele><time>2026-04-09T11:53:37.242Z</time></trkpt><trkpt lat="46.0140203" lon="10.935995"><ele>287.6666666666667</ele><time>2026-04-09T11:53:39.273Z</time></trkpt><trkpt lat="46.0140831" lon="10.9359315"><ele>287.5</ele><time>2026-04-09T11:53:41.256Z</time></trkpt><trkpt lat="46.0141646" lon="10.9358346"><ele>287.33333333333337</ele><time>2026-04-09T11:53:43.254Z</time></trkpt><trkpt lat="46.0142001" lon="10.9357597"><ele>287.1666666666667</ele><time>2026-04-09T11:53:44.256Z</time></trkpt><trkpt lat="46.0142311" lon="10.9356794"><ele>287.0</ele><time>2026-04-09T11:53:45.257Z</time></trkpt><trkpt lat="46.0141936" lon="10.9355983"><ele>287.0</ele><time>2026-04-09T11:53:49.257Z</time></trkpt><trkpt lat="46.0141239" lon="10.9356598"><ele>287.0</ele><time>2026-04-09T11:53:52.258Z</time></trkpt><trkpt lat="46.0140977" lon="10.935746"><ele>287.0</ele><time>2026-04-09T11:53:54.266Z</time></trkpt><trkpt lat="46.0140963" lon="10.9358435"><ele>287.0</ele><time>2026-04-09T11:53:56.256Z</time></trkpt><trkpt lat="46.0140312" lon="10.9359445"><ele>287.0</ele><time>2026-04-09T11:53:58.271Z</time></trkpt><trkpt lat="46.0139617" lon="10.9359691"><ele>287.0</ele><time>2026-04-09T11:54:00.261Z</time></trkpt><trkpt lat="46.0138615" lon="10.9358593"><ele>287.0</ele><time>2026-04-09T11:54:02.273Z</time></trkpt><trkpt lat="46.0138446" lon="10.935706"><ele>287.0</ele><time>2026-04-09T11:54:04.264Z</time></trkpt><trkpt lat="46.0139123" lon="10.9356574"><ele>287.0</ele><time>2026-04-09T11:54:06.259Z</time></trkpt><trkpt lat="46.0139908" lon="10.9358158"><ele>287.0</ele><time>2026-04-09T11:54:08.26Z</time></trkpt><trkpt lat="46.0140446" lon="10.9359158"><ele>287.0</ele><time>2026-04-09T11:54:10.263Z</time></trkpt><trkpt lat="46.0140055" lon="10.9357247"><ele>287.1666666666667</ele><time>2026-04-09T11:54:13.24Z</time></trkpt><trkpt lat="46.0139502" lon="10.9356374"><ele>287.33333333333337</ele><time>2026-04-09T11:54:14.251Z</time></trkpt><trkpt lat="46.0138965" lon="10.9355407"><ele>287.5</ele><time>2026-04-09T11:54:15.269Z</time></trkpt><trkpt lat="46.0138434" lon="10.9354425"><ele>287.6666666666667</ele><time>2026-04-09T11:54:16.256Z</time></trkpt><trkpt lat="46.0138122" lon="10.9353455"><ele>287.8333333333333</ele><time>2026-04-09T11:54:17.261Z</time></trkpt><trkpt lat="46.0138129" lon="10.9352269"><ele>288.0</ele><time>2026-04-09T11:54:19.258Z</time></trkpt><trkpt lat="46.0138855" lon="10.9352269"><ele>288.0</ele><time>2026-04-09T11:54:21.26Z</time></trkpt><trkpt lat="46.0139303" lon="10.9353081"><ele>288.0</ele><time>2026-04-09T11:54:22.278Z</time></trkpt><trkpt lat="46.0139732" lon="10.935383"><ele>288.0</ele><time>2026-04-09T11:54:23.264Z</time></trkpt><trkpt lat="46.0140077" lon="10.9354672"><ele>288.0</ele><time>2026-04-09T11:54:24.269Z</time></trkpt><trkpt lat="46.0140784" lon="10.9355856"><ele>288.0</ele><time>2026-04-09T11:54:26.255Z</time></trkpt><trkpt lat="46.0141751" lon="10.9355312"><ele>288.0</ele><time>2026-04-09T11:54:28.25Z</time></trkpt><trkpt lat="46.0142858" lon="10.9354615"><ele>288.0</ele><time>2026-04-09T11:54:30.257Z</time></trkpt><trkpt lat="46.0143482" lon="10.9353807"><ele>288.0</ele><time>2026-04-09T11:54:32.266Z</time></trkpt><trkpt lat="46.0142971" lon="10.9353069"><ele>288.0</ele><time>2026-04-09T11:54:34.271Z</time></trkpt><trkpt lat="46.0142108" lon="10.9353236"><ele>288.0</ele><time>2026-04-09T11:54:36.262Z</time></trkpt><trkpt lat="46.0141312" lon="10.9353455"><ele>288.0</ele><time>2026-04-09T11:54:38.266Z</time></trkpt><trkpt lat="46.0140801" lon="10.9352914"><ele>288.0</ele><time>2026-04-09T11:54:39.246Z</time></trkpt><trkpt lat="46.0140175" lon="10.9352234"><ele>288.0</ele><time>2026-04-09T11:54:40.268Z</time></trkpt><trkpt lat="46.0139519" lon="10.9351771"><ele>288.0</ele><time>2026-04-09T11:54:41.271Z</time></trkpt><trkpt lat="46.0138897" lon="10.9351001"><ele>288.0</ele><time>2026-04-09T11:54:43.261Z</time></trkpt><trkpt lat="46.013953" lon="10.9349933"><ele>288.0</ele><time>2026-04-09T11:54:45.269Z</time></trkpt><trkpt lat="46.0140314" lon="10.9350253"><ele>288.0</ele><time>2026-04-09T11:54:46.257Z</time></trkpt><trkpt lat="46.0140996" lon="10.9350782"><ele>288.0</ele><time>2026-04-09T11:54:47.259Z</time></trkpt><trkpt lat="46.0142058" lon="10.9351455"><ele>289.8333333333333</ele><time>2026-04-09T11:54:49.251Z</time></trkpt><trkpt lat="46.0142711" lon="10.9351596"><ele>291.6666666666667</ele><time>2026-04-09T11:54:50.25Z</time></trkpt><trkpt lat="46.0143422" lon="10.9351927"><ele>293.5</ele><time>2026-04-09T11:54:51.251Z</time></trkpt><trkpt lat="46.0144376" lon="10.9352715"><ele>295.33333333333337</ele><time>2026-04-09T11:54:53.255Z</time></trkpt><trkpt lat="46.0144761" lon="10.9353539"><ele>297.1666666666667</ele><time>2026-04-09T11:54:55.26Z</time></trkpt><trkpt lat="46.0144955" lon="10.9354688"><ele>299.0</ele><time>2026-04-09T11:54:57.249Z</time></trkpt><trkpt lat="46.0144594" lon="10.9355728"><ele>299.0</ele><time>2026-04-09T11:54:59.269Z</time></trkpt><trkpt lat="46.0144039" lon="10.9356609"><ele>299.0</ele><time>2026-04-09T11:55:01.24Z</time></trkpt><trkpt lat="46.0143855" lon="10.9357956"><ele>299.0</ele><time>2026-04-09T11:55:03.273Z</time></trkpt><trkpt lat="46.0143153" lon="10.9359266"><ele>299.0</ele><time>2026-04-09T11:55:05.242Z</time></trkpt><trkpt lat="46.0142625" lon="10.9359945"><ele>299.0</ele><time>2026-04-09T11:55:06.24Z</time></trkpt><trkpt lat="46.0142059" lon="10.936058"><ele>299.0</ele><time>2026-04-09T11:55:07.257Z</time></trkpt><trkpt lat="46.01409" lon="10.936124"><ele>296.59999999999997</ele><time>2026-04-09T11:55:09.26Z</time></trkpt><trkpt lat="46.0139915" lon="10.9361673"><ele>294.2</ele><time>2026-04-09T11:55:11.244Z</time></trkpt><trkpt lat="46.0138903" lon="10.9362046"><ele>291.79999999999995</ele><time>2026-04-09T11:55:13.277Z</time></trkpt><trkpt lat="46.0137859" lon="10.9361748"><ele>289.4</ele><time>2026-04-09T11:55:15.245Z</time></trkpt><trkpt lat="46.0137051" lon="10.9361035"><ele>287.0</ele><time>2026-04-09T11:55:17.256Z</time></trkpt><trkpt lat="46.0136286" lon="10.9361682"><ele>287.0</ele><time>2026-04-09T11:55:20.259Z</time></trkpt><trkpt lat="46.0135798" lon="10.9362735"><ele>287.0</ele><time>2026-04-09T11:55:22.254Z</time></trkpt><trkpt lat="46.0134726" lon="10.9362525"><ele>287.0</ele><time>2026-04-09T11:55:24.266Z</time></trkpt><trkpt lat="46.0133995" lon="10.9362064"><ele>287.0</ele><time>2026-04-09T11:55:25.254Z</time></trkpt><trkpt lat="46.0133397" lon="10.9361587"><ele>287.0</ele><time>2026-04-09T11:55:26.249Z</time></trkpt><trkpt lat="46.0132766" lon="10.9360288"><ele>285.0</ele><time>2026-04-09T11:55:28.254Z</time></trkpt><trkpt lat="46.0132979" lon="10.9358871"><ele>283.0</ele><time>2026-04-09T11:55:30.269Z</time></trkpt><trkpt lat="46.01329" lon="10.9357894"><ele>281.0</ele><time>2026-04-09T11:55:32.254Z</time></trkpt><trkpt lat="46.0132185" lon="10.9357313"><ele>279.0</ele><time>2026-04-09T11:55:34.263Z</time></trkpt><trkpt lat="46.0131317" lon="10.9357006"><ele>277.0</ele><time>2026-04-09T11:55:36.266Z</time></trkpt><trkpt lat="46.013031" lon="10.9356914"><ele>275.0</ele><time>2026-04-09T11:55:38.262Z</time></trkpt><trkpt lat="46.0129564" lon="10.9356459"><ele>275.0</ele><time>2026-04-09T11:55:40.252Z</time></trkpt><trkpt lat="46.0128647" lon="10.9356334"><ele>275.0</ele><time>2026-04-09T11:55:42.259Z</time></trkpt><trkpt lat="46.0127983" lon="10.935658"><ele>275.0</ele><time>2026-04-09T11:55:44.259Z</time></trkpt><trkpt lat="46.0127282" lon="10.935679"><ele>275.0</ele><time>2026-04-09T11:55:46.263Z</time></trkpt><trkpt lat="46.0126825" lon="10.9356139"><ele>275.0</ele><time>2026-04-09T11:55:48.261Z</time></trkpt><trkpt lat="46.0126806" lon="10.9355047"><ele>275.0</ele><time>2026-04-09T11:55:50.265Z</time></trkpt><trkpt lat="46.012705" lon="10.9354099"><ele>275.0</ele><time>2026-04-09T11:55:52.263Z</time></trkpt><trkpt lat="46.0127689" lon="10.935337"><ele>275.0</ele><time>2026-04-09T11:55:54.254Z</time></trkpt><trkpt lat="46.012828" lon="10.9352688"><ele>275.0</ele><time>2026-04-09T11:55:56.256Z</time></trkpt><trkpt lat="46.0127733" lon="10.9351822"><ele>275.0</ele><time>2026-04-09T11:55:59.251Z</time></trkpt><trkpt lat="46.0127142" lon="10.9352691"><ele>275.0</ele><time>2026-04-09T11:56:02.26Z</time></trkpt><trkpt lat="46.012706" lon="10.9353751"><ele>275.0</ele><time>2026-04-09T11:56:32.263Z</time></trkpt><trkpt lat="46.0127193" lon="10.9354765"><ele>275.0</ele><time>2026-04-09T11:56:34.25Z</time></trkpt><trkpt lat="46.0127843" lon="10.9355491"><ele>275.0</ele><time>2026-04-09T11:56:36.262Z</time></trkpt><trkpt lat="46.0128911" lon="10.9355429"><ele>275.0</ele><time>2026-04-09T11:56:38.256Z</time></trkpt><trkpt lat="46.0129755" lon="10.9355578"><ele>275.0</ele><time>2026-04-09T11:56:39.276Z</time></trkpt><trkpt lat="46.0130642" lon="10.935586"><ele>275.0</ele><time>2026-04-09T11:56:40.25Z</time></trkpt><trkpt lat="46.0131621" lon="10.9355995"><ele>275.0</ele><time>2026-04-09T11:56:41.261Z</time></trkpt><trkpt lat="46.0132552" lon="10.9355885"><ele>277.6</ele><time>2026-04-09T11:56:42.259Z</time></trkpt><trkpt lat="46.0133473" lon="10.9355596"><ele>280.2</ele><time>2026-04-09T11:56:43.261Z</time></trkpt><trkpt lat="46.0134327" lon="10.9354911"><ele>282.8</ele><time>2026-04-09T11:56:44.253Z</time></trkpt><trkpt lat="46.0135116" lon="10.9353798"><ele>285.4</ele><time>2026-04-09T11:56:45.251Z</time></trkpt><trkpt lat="46.0135773" lon="10.9352651"><ele>288.0</ele><time>2026-04-09T11:56:46.238Z</time></trkpt><trkpt lat="46.0136425" lon="10.9351532"><ele>288.1666666666667</ele><time>2026-04-09T11:56:47.26Z</time></trkpt><trkpt lat="46.0137046" lon="10.9350481"><ele>288.3333333333333</ele><time>2026-04-09T11:56:48.237Z</time></trkpt><trkpt lat="46.0137654" lon="10.9349518"><ele>288.5</ele><time>2026-04-09T11:56:49.241Z</time></trkpt><trkpt lat="46.0138292" lon="10.9348787"><ele>288.66666666666663</ele><time>2026-04-09T11:56:50.255Z</time></trkpt><trkpt lat="46.0139016" lon="10.9348471"><ele>288.8333333333333</ele><time>2026-04-09T11:56:51.252Z</time></trkpt><trkpt lat="46.0139745" lon="10.9348493"><ele>289.0</ele><time>2026-04-09T11:56:52.259Z</time></trkpt><trkpt lat="46.014039" lon="10.9348598"><ele>289.0</ele><time>2026-04-09T11:56:53.256Z</time></trkpt><trkpt lat="46.0141085" lon="10.934859"><ele>289.0</ele><time>2026-04-09T11:56:55.253Z</time></trkpt><trkpt lat="46.014088" lon="10.9349915"><ele>289.0</ele><time>2026-04-09T11:56:58.26Z</time></trkpt><trkpt lat="46.0140248" lon="10.9350041"><ele>289.0</ele><time>2026-04-09T11:56:59.257Z</time></trkpt><trkpt lat="46.0139512" lon="10.9349828"><ele>289.0</ele><time>2026-04-09T11:57:00.26Z</time></trkpt><trkpt lat="46.013832" lon="10.9349948"><ele>289.0</ele><time>2026-04-09T11:57:02.26Z</time></trkpt><trkpt lat="46.013766" lon="10.9350422"><ele>288.8</ele><time>2026-04-09T11:57:03.263Z</time></trkpt><trkpt lat="46.0137134" lon="10.9351346"><ele>288.59999999999997</ele><time>2026-04-09T11:57:04.262Z</time></trkpt><trkpt lat="46.0136559" lon="10.9352606"><ele>288.4</ele><time>2026-04-09T11:57:05.27Z</time></trkpt><trkpt lat="46.0135905" lon="10.9353717"><ele>288.2</ele><time>2026-04-09T11:57:06.267Z</time></trkpt><trkpt lat="46.0135246" lon="10.9354575"><ele>288.0</ele><time>2026-04-09T11:57:07.266Z</time></trkpt><trkpt lat="46.0134652" lon="10.9355407"><ele>288.0</ele><time>2026-04-09T11:57:08.266Z</time></trkpt><trkpt lat="46.0134138" lon="10.9356102"><ele>288.0</ele><time>2026-04-09T11:57:09.267Z</time></trkpt><trkpt lat="46.0133868" lon="10.9357717"><ele>288.0</ele><time>2026-04-09T11:57:11.262Z</time></trkpt><trkpt lat="46.0133988" lon="10.9358723"><ele>288.0</ele><time>2026-04-09T11:57:12.266Z</time></trkpt><trkpt lat="46.0134099" lon="10.9359648"><ele>288.0</ele><time>2026-04-09T11:57:13.265Z</time></trkpt><trkpt lat="46.0134282" lon="10.93609"><ele>288.0</ele><time>2026-04-09T11:57:15.274Z</time></trkpt><trkpt lat="46.0135137" lon="10.9361088"><ele>288.0</ele><time>2026-04-09T11:57:18.264Z</time></trkpt><trkpt lat="46.013553" lon="10.9359738"><ele>288.0</ele><time>2026-04-09T11:57:20.271Z</time></trkpt><trkpt lat="46.0135399" lon="10.935778"><ele>288.0</ele><time>2026-04-09T11:57:22.27Z</time></trkpt><trkpt lat="46.0135274" lon="10.9356813"><ele>288.0</ele><time>2026-04-09T11:57:23.259Z</time></trkpt><trkpt lat="46.0135114" lon="10.935549"><ele>288.0</ele><time>2026-04-09T11:57:25.259Z</time></trkpt><trkpt lat="46.0135984" lon="10.9355479"><ele>288.0</ele><time>2026-04-09T11:57:27.257Z</time></trkpt><trkpt lat="46.0136351" lon="10.9356244"><ele>288.0</ele><time>2026-04-09T11:57:28.268Z</time></trkpt><trkpt lat="46.0136376" lon="10.935748"><ele>288.0</ele><time>2026-04-09T11:57:29.256Z</time></trkpt><trkpt lat="46.0136401" lon="10.9358677"><ele>288.0</ele><time>2026-04-09T11:57:30.27Z</time></trkpt><trkpt lat="46.0136671" lon="10.9359568"><ele>288.0</ele><time>2026-04-09T11:57:31.26Z</time></trkpt><trkpt lat="46.0137606" lon="10.9360195"><ele>288.0</ele><time>2026-04-09T11:57:33.262Z</time></trkpt><trkpt lat="46.0137877" lon="10.9359018"><ele>288.0</ele><time>2026-04-09T11:57:35.263Z</time></trkpt><trkpt lat="46.0137663" lon="10.935801"><ele>288.0</ele><time>2026-04-09T11:57:36.268Z</time></trkpt><trkpt lat="46.0137319" lon="10.9357179"><ele>288.0</ele><time>2026-04-09T11:57:37.258Z</time></trkpt><trkpt lat="46.0137046" lon="10.9356337"><ele>288.0</ele><time>2026-04-09T11:57:38.262Z</time></trkpt><trkpt lat="46.013679" lon="10.9355367"><ele>288.0</ele><time>2026-04-09T11:57:39.264Z</time></trkpt><trkpt lat="46.0136498" lon="10.9353734"><ele>288.0</ele><time>2026-04-09T11:57:41.253Z</time></trkpt><trkpt lat="46.0136923" lon="10.9352879"><ele>288.0</ele><time>2026-04-09T11:57:43.243Z</time></trkpt><trkpt lat="46.0137664" lon="10.9353703"><ele>288.0</ele><time>2026-04-09T11:57:45.259Z</time></trkpt><trkpt lat="46.013795" lon="10.9355441"><ele>288.0</ele><time>2026-04-09T11:57:47.255Z</time></trkpt><trkpt lat="46.0138077" lon="10.9356431"><ele>288.0</ele><time>2026-04-09T11:57:48.244Z</time></trkpt><trkpt lat="46.0138155" lon="10.9358194"><ele>288.0</ele><time>2026-04-09T11:57:50.259Z</time></trkpt><trkpt lat="46.01384" lon="10.9359435"><ele>288.0</ele><time>2026-04-09T11:57:52.26Z</time></trkpt><trkpt lat="46.0139152" lon="10.9360447"><ele>288.0</ele><time>2026-04-09T11:57:54.26Z</time></trkpt><trkpt lat="46.0139797" lon="10.9360308"><ele>288.0</ele><time>2026-04-09T11:57:55.256Z</time></trkpt><trkpt lat="46.0140662" lon="10.9359664"><ele>288.0</ele><time>2026-04-09T11:57:57.267Z</time></trkpt><trkpt lat="46.0141405" lon="10.9358607"><ele>288.0</ele><time>2026-04-09T11:57:59.263Z</time></trkpt><trkpt lat="46.0141742" lon="10.9357783"><ele>288.0</ele><time>2026-04-09T11:58:00.255Z</time></trkpt><trkpt lat="46.0142412" lon="10.9356479"><ele>288.0</ele><time>2026-04-09T11:58:02.278Z</time></trkpt><trkpt lat="46.0141859" lon="10.9355681"><ele>288.0</ele><time>2026-04-09T11:58:06.267Z</time></trkpt><trkpt lat="46.0141233" lon="10.9356092"><ele>288.0</ele><time>2026-04-09T11:58:08.264Z</time></trkpt><trkpt lat="46.0140839" lon="10.9356842"><ele>288.0</ele><time>2026-04-09T11:58:10.265Z</time></trkpt><trkpt lat="46.0140773" lon="10.935776"><ele>288.0</ele><time>2026-04-09T11:58:12.237Z</time></trkpt><trkpt lat="46.0140528" lon="10.9358815"><ele>288.0</ele><time>2026-04-09T11:58:14.264Z</time></trkpt><trkpt lat="46.0139582" lon="10.9359379"><ele>288.0</ele><time>2026-04-09T11:58:16.257Z</time></trkpt><trkpt lat="46.0138626" lon="10.9359158"><ele>288.0</ele><time>2026-04-09T11:58:18.265Z</time></trkpt><trkpt lat="46.013822" lon="10.9357811"><ele>288.0</ele><time>2026-04-09T11:58:20.259Z</time></trkpt><trkpt lat="46.0138381" lon="10.9356702"><ele>288.0</ele><time>2026-04-09T11:58:22.263Z</time></trkpt><trkpt lat="46.0139018" lon="10.9356506"><ele>288.0</ele><time>2026-04-09T11:58:23.257Z</time></trkpt><trkpt lat="46.0139906" lon="10.9357699"><ele>288.0</ele><time>2026-04-09T11:58:25.266Z</time></trkpt><trkpt lat="46.0140479" lon="10.93589"><ele>288.0</ele><time>2026-04-09T11:58:27.257Z</time></trkpt><trkpt lat="46.0140644" lon="10.9358023"><ele>288.0</ele><time>2026-04-09T11:58:30.269Z</time></trkpt><trkpt lat="46.0140034" lon="10.9357143"><ele>288.0</ele><time>2026-04-09T11:58:31.261Z</time></trkpt><trkpt lat="46.0139204" lon="10.9356158"><ele>288.0</ele><time>2026-04-09T11:58:32.263Z</time></trkpt><trkpt lat="46.0138531" lon="10.9354952"><ele>288.0</ele><time>2026-04-09T11:58:33.278Z</time></trkpt><trkpt lat="46.0138207" lon="10.9353957"><ele>288.0</ele><time>2026-04-09T11:58:34.264Z</time></trkpt><trkpt lat="46.0137994" lon="10.9352631"><ele>288.0</ele><time>2026-04-09T11:58:36.267Z</time></trkpt><trkpt lat="46.0138897" lon="10.9352291"><ele>288.0</ele><time>2026-04-09T11:58:39.271Z</time></trkpt><trkpt lat="46.0139662" lon="10.9354017"><ele>288.0</ele><time>2026-04-09T11:58:41.254Z</time></trkpt><trkpt lat="46.0140167" lon="10.9355062"><ele>288.0</ele><time>2026-04-09T11:58:42.26Z</time></trkpt><trkpt lat="46.0140965" lon="10.9355635"><ele>288.0</ele><time>2026-04-09T11:58:44.265Z</time></trkpt><trkpt lat="46.0141715" lon="10.9355188"><ele>288.0</ele><time>2026-04-09T11:58:46.256Z</time></trkpt><trkpt lat="46.0142809" lon="10.9354511"><ele>288.0</ele><time>2026-04-09T11:58:48.256Z</time></trkpt><trkpt lat="46.0143418" lon="10.9353837"><ele>288.0</ele><time>2026-04-09T11:58:50.262Z</time></trkpt><trkpt lat="46.0142482" lon="10.9353132"><ele>288.0</ele><time>2026-04-09T11:58:53.264Z</time></trkpt><trkpt lat="46.0141668" lon="10.935366"><ele>288.0</ele><time>2026-04-09T11:58:55.242Z</time></trkpt><trkpt lat="46.0140735" lon="10.9352911"><ele>288.0</ele><time>2026-04-09T11:58:57.238Z</time></trkpt><trkpt lat="46.0140161" lon="10.935232"><ele>288.0</ele><time>2026-04-09T11:58:58.249Z</time></trkpt><trkpt lat="46.0139558" lon="10.93519"><ele>288.0</ele><time>2026-04-09T11:58:59.261Z</time></trkpt><trkpt lat="46.0138844" lon="10.9351274"><ele>288.0</ele><time>2026-04-09T11:59:01.26Z</time></trkpt><trkpt lat="46.0139243" lon="10.9350108"><ele>288.0</ele><time>2026-04-09T11:59:03.247Z</time></trkpt><trkpt lat="46.0139898" lon="10.9350199"><ele>288.0</ele><time>2026-04-09T11:59:04.256Z</time></trkpt><trkpt lat="46.0140706" lon="10.9350731"><ele>288.0</ele><time>2026-04-09T11:59:05.255Z</time></trkpt><trkpt lat="46.0141384" lon="10.9351175"><ele>288.0</ele><time>2026-04-09T11:59:06.262Z</time></trkpt><trkpt lat="46.0142415" lon="10.9351609"><ele>288.0</ele><time>2026-04-09T11:59:08.265Z</time></trkpt><trkpt lat="46.0143067" lon="10.9351833"><ele>288.0</ele><time>2026-04-09T11:59:09.259Z</time></trkpt><trkpt lat="46.014396" lon="10.9352203"><ele>289.8333333333333</ele><time>2026-04-09T11:59:11.27Z</time></trkpt><trkpt lat="46.0144527" lon="10.9352732"><ele>291.6666666666667</ele><time>2026-04-09T11:59:13.26Z</time></trkpt><trkpt lat="46.0144772" lon="10.9353978"><ele>293.5</ele><time>2026-04-09T11:59:15.243Z</time></trkpt><trkpt lat="46.0144689" lon="10.935536"><ele>295.33333333333337</ele><time>2026-04-09T11:59:17.265Z</time></trkpt><trkpt lat="46.0144145" lon="10.935613"><ele>297.1666666666667</ele><time>2026-04-09T11:59:19.251Z</time></trkpt><trkpt lat="46.0143697" lon="10.9357037"><ele>299.0</ele><time>2026-04-09T11:59:21.263Z</time></trkpt><trkpt lat="46.0143205" lon="10.9358347"><ele>298.0</ele><time>2026-04-09T11:59:23.266Z</time></trkpt><trkpt lat="46.0142663" lon="10.935907"><ele>297.0</ele><time>2026-04-09T11:59:24.263Z</time></trkpt><trkpt lat="46.0142163" lon="10.9359756"><ele>296.0</ele><time>2026-04-09T11:59:25.261Z</time></trkpt><trkpt lat="46.0141217" lon="10.9360836"><ele>295.0</ele><time>2026-04-09T11:59:27.248Z</time></trkpt><trkpt lat="46.0140558" lon="10.9361156"><ele>294.0</ele><time>2026-04-09T11:59:28.259Z</time></trkpt><trkpt lat="46.0139561" lon="10.9361584"><ele>293.0</ele><time>2026-04-09T11:59:30.264Z</time></trkpt><trkpt lat="46.0138658" lon="10.936203"><ele>291.8</ele><time>2026-04-09T11:59:32.265Z</time></trkpt><trkpt lat="46.0137643" lon="10.9361711"><ele>290.6</ele><time>2026-04-09T11:59:34.246Z</time></trkpt><trkpt lat="46.0136753" lon="10.9361116"><ele>289.4</ele><time>2026-04-09T11:59:36.264Z</time></trkpt><trkpt lat="46.0136034" lon="10.9361992"><ele>288.2</ele><time>2026-04-09T11:59:39.259Z</time></trkpt><trkpt lat="46.0135251" lon="10.9362618"><ele>287.0</ele><time>2026-04-09T11:59:41.261Z</time></trkpt><trkpt lat="46.0134606" lon="10.9362466"><ele>287.0</ele><time>2026-04-09T11:59:42.262Z</time></trkpt><trkpt lat="46.0133934" lon="10.9362096"><ele>287.0</ele><time>2026-04-09T11:59:43.258Z</time></trkpt><trkpt lat="46.013335" lon="10.9361695"><ele>287.0</ele><time>2026-04-09T11:59:44.248Z</time></trkpt><trkpt lat="46.0132665" lon="10.9360431"><ele>287.0</ele><time>2026-04-09T11:59:46.264Z</time></trkpt><trkpt lat="46.0132882" lon="10.9358759"><ele>287.0</ele><time>2026-04-09T11:59:48.259Z</time></trkpt><trkpt lat="46.0132884" lon="10.9357389"><ele>284.6</ele><time>2026-04-09T11:59:50.258Z</time></trkpt><trkpt lat="46.0132099" lon="10.9356794"><ele>282.2</ele><time>2026-04-09T11:59:52.263Z</time></trkpt><trkpt lat="46.0131255" lon="10.9356683"><ele>279.8</ele><time>2026-04-09T11:59:54.26Z</time></trkpt><trkpt lat="46.0130276" lon="10.9356794"><ele>277.4</ele><time>2026-04-09T11:59:56.257Z</time></trkpt><trkpt lat="46.0129398" lon="10.9356176"><ele>275.0</ele><time>2026-04-09T11:59:58.263Z</time></trkpt><trkpt lat="46.0128572" lon="10.9356138"><ele>275.0</ele><time>2026-04-09T12:00:00.269Z</time></trkpt><trkpt lat="46.012777" lon="10.9356521"><ele>275.0</ele><time>2026-04-09T12:00:02.239Z</time></trkpt><trkpt lat="46.012704" lon="10.9356476"><ele>275.0</ele><time>2026-04-09T12:00:04.269Z</time></trkpt><trkpt lat="46.012675" lon="10.9355345"><ele>275.0</ele><time>2026-04-09T12:00:06.268Z</time></trkpt><trkpt lat="46.0127043" lon="10.935371"><ele>275.0</ele><time>2026-04-09T12:00:08.259Z</time></trkpt><trkpt lat="46.0127771" lon="10.9353072"><ele>275.0</ele><time>2026-04-09T12:00:10.267Z</time></trkpt><trkpt lat="46.0128229" lon="10.9352242"><ele>275.0</ele><time>2026-04-09T12:00:12.256Z</time></trkpt><trkpt lat="46.0127852" lon="10.935126"><ele>275.0</ele><time>2026-04-09T12:00:15.265Z</time></trkpt><trkpt lat="46.0127295" lon="10.9352374"><ele>275.0</ele><time>2026-04-09T12:00:18.261Z</time></trkpt><trkpt lat="46.0127285" lon="10.9353466"><ele>275.0</ele><time>2026-04-09T12:00:20.265Z</time></trkpt><trkpt lat="46.0127495" lon="10.9354677"><ele>275.0</ele><time>2026-04-09T12:00:23.258Z</time></trkpt><trkpt lat="46.0127969" lon="10.9355419"><ele>275.0</ele><time>2026-04-09T12:00:25.258Z</time></trkpt><trkpt lat="46.0128864" lon="10.9355535"><ele>275.0</ele><time>2026-04-09T12:00:27.243Z</time></trkpt><trkpt lat="46.0129674" lon="10.9355552"><ele>275.0</ele><time>2026-04-09T12:00:28.242Z</time></trkpt><trkpt lat="46.0130584" lon="10.9355767"><ele>275.0</ele><time>2026-04-09T12:00:29.246Z</time></trkpt><trkpt lat="46.0131557" lon="10.93559"><ele>275.0</ele><time>2026-04-09T12:00:30.245Z</time></trkpt><trkpt lat="46.0132575" lon="10.9355782"><ele>275.0</ele><time>2026-04-09T12:00:31.264Z</time></trkpt><trkpt lat="46.0133428" lon="10.9355485"><ele>277.6</ele><time>2026-04-09T12:00:32.239Z</time></trkpt><trkpt lat="46.0134152" lon="10.9354998"><ele>280.2</ele><time>2026-04-09T12:00:33.253Z</time></trkpt><trkpt lat="46.0134821" lon="10.9354352"><ele>282.8</ele><time>2026-04-09T12:00:34.263Z</time></trkpt><trkpt lat="46.0135425" lon="10.9353423"><ele>285.4</ele><time>2026-04-09T12:00:35.248Z</time></trkpt><trkpt lat="46.0136068" lon="10.9352262"><ele>288.0</ele><time>2026-04-09T12:00:36.252Z</time></trkpt><trkpt lat="46.0136717" lon="10.9351009"><ele>288.2</ele><time>2026-04-09T12:00:37.262Z</time></trkpt><trkpt lat="46.0137295" lon="10.9350071"><ele>288.4</ele><time>2026-04-09T12:00:38.266Z</time></trkpt><trkpt lat="46.0137849" lon="10.9349312"><ele>288.59999999999997</ele><time>2026-04-09T12:00:39.263Z</time></trkpt><trkpt lat="46.0138395" lon="10.934862"><ele>288.8</ele><time>2026-04-09T12:00:40.254Z</time></trkpt><trkpt lat="46.013961" lon="10.9348349"><ele>289.0</ele><time>2026-04-09T12:00:42.254Z</time></trkpt><trkpt lat="46.0140606" lon="10.9348303"><ele>289.0</ele><time>2026-04-09T12:00:44.267Z</time></trkpt><trkpt lat="46.0141045" lon="10.934906"><ele>289.0</ele><time>2026-04-09T12:00:47.245Z</time></trkpt><trkpt lat="46.0140466" lon="10.9349864"><ele>289.0</ele><time>2026-04-09T12:00:49.255Z</time></trkpt><trkpt lat="46.0139697" lon="10.9349693"><ele>289.0</ele><time>2026-04-09T12:00:50.262Z</time></trkpt><trkpt lat="46.0139029" lon="10.9349678"><ele>289.0</ele><time>2026-04-09T12:00:51.262Z</time></trkpt><trkpt lat="46.0137805" lon="10.9350431"><ele>289.0</ele><time>2026-04-09T12:00:53.262Z</time></trkpt><trkpt lat="46.0137196" lon="10.93516"><ele>288.8</ele><time>2026-04-09T12:00:54.272Z</time></trkpt><trkpt lat="46.0136509" lon="10.9352994"><ele>288.59999999999997</ele><time>2026-04-09T12:00:55.256Z</time></trkpt><trkpt lat="46.0135863" lon="10.9354009"><ele>288.4</ele><time>2026-04-09T12:00:56.262Z</time></trkpt><trkpt lat="46.0135196" lon="10.9354911"><ele>288.2</ele><time>2026-04-09T12:00:57.269Z</time></trkpt><trkpt lat="46.0134563" lon="10.9355735"><ele>288.0</ele><time>2026-04-09T12:00:58.268Z</time></trkpt><trkpt lat="46.0134118" lon="10.9356418"><ele>288.0</ele><time>2026-04-09T12:00:59.263Z</time></trkpt><trkpt lat="46.0134001" lon="10.9358082"><ele>288.0</ele><time>2026-04-09T12:01:01.243Z</time></trkpt><trkpt lat="46.0134104" lon="10.9359111"><ele>288.0</ele><time>2026-04-09T12:01:02.252Z</time></trkpt><trkpt lat="46.0134166" lon="10.9360143"><ele>288.0</ele><time>2026-04-09T12:01:03.261Z</time></trkpt><trkpt lat="46.0134271" lon="10.9361306"><ele>288.0</ele><time>2026-04-09T12:01:05.255Z</time></trkpt><trkpt lat="46.0135049" lon="10.936119"><ele>288.0</ele><time>2026-04-09T12:01:07.264Z</time></trkpt><trkpt lat="46.0135512" lon="10.9360033"><ele>288.0</ele><time>2026-04-09T12:01:09.262Z</time></trkpt><trkpt lat="46.0135439" lon="10.9358293"><ele>288.0</ele><time>2026-04-09T12:01:11.261Z</time></trkpt><trkpt lat="46.0135311" lon="10.935729"><ele>288.0</ele><time>2026-04-09T12:01:12.262Z</time></trkpt><trkpt lat="46.0135192" lon="10.9356357"><ele>288.0</ele><time>2026-04-09T12:01:13.264Z</time></trkpt><trkpt lat="46.0135448" lon="10.9355355"><ele>288.0</ele><time>2026-04-09T12:01:15.267Z</time></trkpt><trkpt lat="46.0136273" lon="10.9356378"><ele>288.0</ele><time>2026-04-09T12:01:17.254Z</time></trkpt><trkpt lat="46.0136412" lon="10.935743"><ele>288.0</ele><time>2026-04-09T12:01:18.272Z</time></trkpt><trkpt lat="46.0136531" lon="10.9358431"><ele>288.0</ele><time>2026-04-09T12:01:19.254Z</time></trkpt><trkpt lat="46.0137104" lon="10.9359663"><ele>288.0</ele><time>2026-04-09T12:01:21.254Z</time></trkpt><trkpt lat="46.0137916" lon="10.9359808"><ele>288.0</ele><time>2026-04-09T12:01:23.255Z</time></trkpt><trkpt lat="46.0137736" lon="10.9358721"><ele>288.0</ele><time>2026-04-09T12:01:25.258Z</time></trkpt><trkpt lat="46.013715" lon="10.9357181"><ele>288.0</ele><time>2026-04-09T12:01:27.261Z</time></trkpt><trkpt lat="46.0136822" lon="10.9356304"><ele>288.0</ele><time>2026-04-09T12:01:28.258Z</time></trkpt><trkpt lat="46.0136497" lon="10.9355469"><ele>288.0</ele><time>2026-04-09T12:01:29.242Z</time></trkpt><trkpt lat="46.0136302" lon="10.9354551"><ele>288.0</ele><time>2026-04-09T12:01:30.275Z</time></trkpt><trkpt lat="46.0136589" lon="10.9353286"><ele>288.0</ele><time>2026-04-09T12:01:32.256Z</time></trkpt><trkpt lat="46.0137471" lon="10.9353827"><ele>288.0</ele><time>2026-04-09T12:01:34.262Z</time></trkpt><trkpt lat="46.0137896" lon="10.9355401"><ele>288.0</ele><time>2026-04-09T12:01:36.266Z</time></trkpt><trkpt lat="46.0138039" lon="10.9357261"><ele>288.0</ele><time>2026-04-09T12:01:38.257Z</time></trkpt><trkpt lat="46.0138121" lon="10.9358649"><ele>288.0</ele><time>2026-04-09T12:01:40.262Z</time></trkpt><trkpt lat="46.0138615" lon="10.9359648"><ele>288.0</ele><time>2026-04-09T12:01:42.271Z</time></trkpt><trkpt lat="46.0139509" lon="10.9359695"><ele>288.0</ele><time>2026-04-09T12:01:44.256Z</time></trkpt><trkpt lat="46.0140194" lon="10.9359469"><ele>288.0</ele><time>2026-04-09T12:01:46.257Z</time></trkpt><trkpt lat="46.0140791" lon="10.9358733"><ele>288.0</ele><time>2026-04-09T12:01:48.255Z</time></trkpt><trkpt lat="46.0141382" lon="10.9357521"><ele>288.0</ele><time>2026-04-09T12:01:50.257Z</time></trkpt><trkpt lat="46.0141944" lon="10.9356403"><ele>288.0</ele><time>2026-04-09T12:01:52.268Z</time></trkpt><trkpt lat="46.0141304" lon="10.9356587"><ele>288.0</ele><time>2026-04-09T12:01:58.262Z</time></trkpt><trkpt lat="46.0141096" lon="10.9357516"><ele>288.0</ele><time>2026-04-09T12:02:00.262Z</time></trkpt><trkpt lat="46.0140933" lon="10.9358674"><ele>288.0</ele><time>2026-04-09T12:02:03.236Z</time></trkpt><trkpt lat="46.0140364" lon="10.9359246"><ele>288.0</ele><time>2026-04-09T12:02:05.267Z</time></trkpt><trkpt lat="46.0139487" lon="10.9359013"><ele>288.0</ele><time>2026-04-09T12:02:07.253Z</time></trkpt><trkpt lat="46.0138939" lon="10.9358484"><ele>288.0</ele><time>2026-04-09T12:02:08.27Z</time></trkpt><trkpt lat="46.0138336" lon="10.9357433"><ele>288.0</ele><time>2026-04-09T12:02:10.257Z</time></trkpt><trkpt lat="46.0138961" lon="10.9356624"><ele>288.0</ele><time>2026-04-09T12:02:12.261Z</time></trkpt><trkpt lat="46.0139828" lon="10.9357764"><ele>288.0</ele><time>2026-04-09T12:02:14.265Z</time></trkpt><trkpt lat="46.0140397" lon="10.9359008"><ele>288.0</ele><time>2026-04-09T12:02:16.258Z</time></trkpt><trkpt lat="46.0140484" lon="10.9358104"><ele>288.0</ele><time>2026-04-09T12:02:19.269Z</time></trkpt><trkpt lat="46.0139894" lon="10.9356895"><ele>288.0</ele><time>2026-04-09T12:02:20.262Z</time></trkpt><trkpt lat="46.0139213" lon="10.9355961"><ele>288.0</ele><time>2026-04-09T12:02:21.266Z</time></trkpt><trkpt lat="46.0138691" lon="10.9355044"><ele>288.0</ele><time>2026-04-09T12:02:22.265Z</time></trkpt><trkpt lat="46.0138287" lon="10.9354156"><ele>288.0</ele><time>2026-04-09T12:02:23.263Z</time></trkpt><trkpt lat="46.0137999" lon="10.9352659"><ele>288.0</ele><time>2026-04-09T12:02:25.255Z</time></trkpt><trkpt lat="46.0138448" lon="10.935186"><ele>288.0</ele><time>2026-04-09T12:02:27.254Z</time></trkpt><trkpt lat="46.013922" lon="10.9352906"><ele>288.0</ele><time>2026-04-09T12:02:29.25Z</time></trkpt><trkpt lat="46.0139597" lon="10.9353689"><ele>288.0</ele><time>2026-04-09T12:02:30.253Z</time></trkpt><trkpt lat="46.0140053" lon="10.9354615"><ele>288.0</ele><time>2026-04-09T12:02:31.264Z</time></trkpt><trkpt lat="46.0140567" lon="10.9355207"><ele>288.0</ele><time>2026-04-09T12:02:32.255Z</time></trkpt><trkpt lat="46.0141366" lon="10.9355186"><ele>288.0</ele><time>2026-04-09T12:02:34.258Z</time></trkpt><trkpt lat="46.014195" lon="10.9354829"><ele>288.0</ele><time>2026-04-09T12:02:35.253Z</time></trkpt><trkpt lat="46.0142637" lon="10.9354426"><ele>288.0</ele><time>2026-04-09T12:02:36.27Z</time></trkpt><trkpt lat="46.0143428" lon="10.9353714"><ele>288.0</ele><time>2026-04-09T12:02:38.256Z</time></trkpt><trkpt lat="46.0143291" lon="10.9352637"><ele>288.0</ele><time>2026-04-09T12:02:40.261Z</time></trkpt><trkpt lat="46.0142436" lon="10.9352869"><ele>288.0</ele><time>2026-04-09T12:02:42.262Z</time></trkpt><trkpt lat="46.0141591" lon="10.9353748"><ele>288.0</ele><time>2026-04-09T12:02:44.26Z</time></trkpt><trkpt lat="46.0140512" lon="10.9352802"><ele>288.0</ele><time>2026-04-09T12:02:46.256Z</time></trkpt><trkpt lat="46.0139865" lon="10.9352065"><ele>288.0</ele><time>2026-04-09T12:02:47.257Z</time></trkpt><trkpt lat="46.0139015" lon="10.9351163"><ele>288.0</ele><time>2026-04-09T12:02:49.25Z</time></trkpt><trkpt lat="46.0139112" lon="10.9350129"><ele>288.00000000000006</ele><time>2026-04-09T12:02:51.257Z</time></trkpt><trkpt lat="46.0140105" lon="10.9350225"><ele>288.0</ele><time>2026-04-09T12:02:53.254Z</time></trkpt><trkpt lat="46.0140808" lon="10.9350632"><ele>288.0</ele><time>2026-04-09T12:02:54.259Z</time></trkpt><trkpt lat="46.0141483" lon="10.9350937"><ele>288.0</ele><time>2026-04-09T12:02:55.261Z</time></trkpt><trkpt lat="46.0142092" lon="10.9351225"><ele>288.0</ele><time>2026-04-09T12:02:56.26Z</time></trkpt><trkpt lat="46.0142766" lon="10.9351512"><ele>288.00000000000006</ele><time>2026-04-09T12:02:57.253Z</time></trkpt><trkpt lat="46.0143369" lon="10.9351798"><ele>288.0</ele><time>2026-04-09T12:02:58.254Z</time></trkpt><trkpt lat="46.0144253" lon="10.9352183"><ele>290.2</ele><time>2026-04-09T12:03:00.263Z</time></trkpt><trkpt lat="46.0144677" lon="10.9353311"><ele>292.4</ele><time>2026-04-09T12:03:02.261Z</time></trkpt><trkpt lat="46.0144764" lon="10.9354848"><ele>294.59999999999997</ele><time>2026-04-09T12:03:04.256Z</time></trkpt><trkpt lat="46.0144282" lon="10.9355998"><ele>296.8</ele><time>2026-04-09T12:03:06.26Z</time></trkpt><trkpt lat="46.0143624" lon="10.9357124"><ele>299.0</ele><time>2026-04-09T12:03:08.257Z</time></trkpt><trkpt lat="46.0143233" lon="10.9358422"><ele>297.8</ele><time>2026-04-09T12:03:10.255Z</time></trkpt><trkpt lat="46.0142502" lon="10.9359608"><ele>296.59999999999997</ele><time>2026-04-09T12:03:12.257Z</time></trkpt><trkpt lat="46.0142019" lon="10.9360311"><ele>295.4</ele><time>2026-04-09T12:03:13.257Z</time></trkpt><trkpt lat="46.0140919" lon="10.9361317"><ele>294.2</ele><time>2026-04-09T12:03:15.261Z</time></trkpt><trkpt lat="46.0139865" lon="10.9361846"><ele>293.0</ele><time>2026-04-09T12:03:17.275Z</time></trkpt><trkpt lat="46.013881" lon="10.9362302"><ele>292.0</ele><time>2026-04-09T12:03:19.248Z</time></trkpt><trkpt lat="46.0137746" lon="10.9362219"><ele>291.0</ele><time>2026-04-09T12:03:21.258Z</time></trkpt><trkpt lat="46.0136986" lon="10.9361508"><ele>290.0</ele><time>2026-04-09T12:03:23.253Z</time></trkpt><trkpt lat="46.013636" lon="10.93618"><ele>289.0</ele><time>2026-04-09T12:03:26.262Z</time></trkpt><trkpt lat="46.0135773" lon="10.936256"><ele>288.0</ele><time>2026-04-09T12:03:28.254Z</time></trkpt><trkpt lat="46.0134757" lon="10.9362643"><ele>287.0</ele><time>2026-04-09T12:03:30.262Z</time></trkpt><trkpt lat="46.0133994" lon="10.9362232"><ele>287.0</ele><time>2026-04-09T12:03:31.264Z</time></trkpt><trkpt lat="46.0133302" lon="10.9361665"><ele>287.0</ele><time>2026-04-09T12:03:32.26Z</time></trkpt><trkpt lat="46.0132921" lon="10.9360925"><ele>287.0</ele><time>2026-04-09T12:03:33.263Z</time></trkpt><trkpt lat="46.0132936" lon="10.9359252"><ele>287.0</ele><time>2026-04-09T12:03:35.258Z</time></trkpt><trkpt lat="46.0133116" lon="10.935792"><ele>287.0</ele><time>2026-04-09T12:03:37.254Z</time></trkpt><trkpt lat="46.0132483" lon="10.9357019"><ele>287.0</ele><time>2026-04-09T12:03:39.267Z</time></trkpt><trkpt lat="46.0131543" lon="10.9356863"><ele>285.0</ele><time>2026-04-09T12:03:41.259Z</time></trkpt><trkpt lat="46.0130633" lon="10.9356777"><ele>283.0</ele><time>2026-04-09T12:03:43.254Z</time></trkpt><trkpt lat="46.012978" lon="10.9356424"><ele>281.0</ele><time>2026-04-09T12:03:45.259Z</time></trkpt><trkpt lat="46.0128943" lon="10.9356088"><ele>279.0</ele><time>2026-04-09T12:03:47.255Z</time></trkpt><trkpt lat="46.0128182" lon="10.9356516"><ele>277.0</ele><time>2026-04-09T12:03:49.236Z</time></trkpt><trkpt lat="46.0127535" lon="10.9356866"><ele>275.0</ele><time>2026-04-09T12:03:51.261Z</time></trkpt><trkpt lat="46.0126955" lon="10.9356248"><ele>275.0</ele><time>2026-04-09T12:03:53.255Z</time></trkpt><trkpt lat="46.0126856" lon="10.9354845"><ele>275.0</ele><time>2026-04-09T12:03:55.27Z</time></trkpt><trkpt lat="46.0127169" lon="10.9353509"><ele>275.0</ele><time>2026-04-09T12:03:57.253Z</time></trkpt><trkpt lat="46.0127735" lon="10.9352672"><ele>275.0</ele><time>2026-04-09T12:03:59.253Z</time></trkpt><trkpt lat="46.0128025" lon="10.9351649"><ele>275.0</ele><time>2026-04-09T12:04:02.247Z</time></trkpt><trkpt lat="46.0127334" lon="10.935191"><ele>275.0</ele><time>2026-04-09T12:04:05.256Z</time></trkpt><trkpt lat="46.012723" lon="10.9352809"><ele>275.0</ele><time>2026-04-09T12:04:07.266Z</time></trkpt><trkpt lat="46.0127101" lon="10.9353836"><ele>275.0</ele><time>2026-04-09T12:04:09.259Z</time></trkpt><trkpt lat="46.0127546" lon="10.9354848"><ele>275.0</ele><time>2026-04-09T12:04:12.256Z</time></trkpt><trkpt lat="46.0128272" lon="10.9355221"><ele>275.0</ele><time>2026-04-09T12:04:14.26Z</time></trkpt><trkpt lat="46.0129574" lon="10.9355346"><ele>275.0</ele><time>2026-04-09T12:04:16.267Z</time></trkpt><trkpt lat="46.0130441" lon="10.9355573"><ele>275.0</ele><time>2026-04-09T12:04:17.253Z</time></trkpt><trkpt lat="46.0131392" lon="10.9355742"><ele>275.0</ele><time>2026-04-09T12:04:18.255Z</time></trkpt><trkpt lat="46.0132382" lon="10.935571"><ele>275.0</ele><time>2026-04-09T12:04:19.24Z</time></trkpt><trkpt lat="46.0133248" lon="10.9355402"><ele>275.0</ele><time>2026-04-09T12:04:20.236Z</time></trkpt><trkpt lat="46.0133998" lon="10.9354987"><ele>275.0</ele><time>2026-04-09T12:04:21.257Z</time></trkpt><trkpt lat="46.013474" lon="10.935439"><ele>275.0</ele><time>2026-04-09T12:04:22.258Z</time></trkpt><trkpt lat="46.0135469" lon="10.9353545"><ele>277.6</ele><time>2026-04-09T12:04:23.262Z</time></trkpt><trkpt lat="46.0136117" lon="10.9352528"><ele>280.2</ele><time>2026-04-09T12:04:24.267Z</time></trkpt><trkpt lat="46.0136759" lon="10.9351459"><ele>282.8</ele><time>2026-04-09T12:04:25.25Z</time></trkpt><trkpt lat="46.0137404" lon="10.9350363"><ele>285.4</ele><time>2026-04-09T12:04:26.245Z</time></trkpt><trkpt lat="46.0137989" lon="10.9349395"><ele>288.0</ele><time>2026-04-09T12:04:27.257Z</time></trkpt><trkpt lat="46.0138538" lon="10.9348754"><ele>288.1666666666667</ele><time>2026-04-09T12:04:28.259Z</time></trkpt><trkpt lat="46.0139258" lon="10.9348402"><ele>288.3333333333333</ele><time>2026-04-09T12:04:29.259Z</time></trkpt><trkpt lat="46.014003" lon="10.9348459"><ele>288.5</ele><time>2026-04-09T12:04:30.256Z</time></trkpt><trkpt lat="46.014085" lon="10.9348444"><ele>288.66666666666663</ele><time>2026-04-09T12:04:32.261Z</time></trkpt><trkpt lat="46.0141147" lon="10.9349415"><ele>288.8333333333333</ele><time>2026-04-09T12:04:35.274Z</time></trkpt><trkpt lat="46.0139959" lon="10.9349967"><ele>289.0</ele><time>2026-04-09T12:04:37.26Z</time></trkpt><trkpt lat="46.0138774" lon="10.9349948"><ele>289.0</ele><time>2026-04-09T12:04:39.258Z</time></trkpt><trkpt lat="46.0138126" lon="10.9350306"><ele>289.0</ele><time>2026-04-09T12:04:40.262Z</time></trkpt><trkpt lat="46.013753" lon="10.9350895"><ele>289.0</ele><time>2026-04-09T12:04:41.273Z</time></trkpt><trkpt lat="46.013694" lon="10.9351794"><ele>289.0</ele><time>2026-04-09T12:04:42.265Z</time></trkpt><trkpt lat="46.0136292" lon="10.9352915"><ele>289.0</ele><time>2026-04-09T12:04:43.262Z</time></trkpt><trkpt lat="46.0135649" lon="10.9353998"><ele>289.0</ele><time>2026-04-09T12:04:44.255Z</time></trkpt><trkpt lat="46.013501" lon="10.9354858"><ele>288.8333333333333</ele><time>2026-04-09T12:04:45.267Z</time></trkpt><trkpt lat="46.0134459" lon="10.9355589"><ele>288.66666666666663</ele><time>2026-04-09T12:04:46.259Z</time></trkpt><trkpt lat="46.0133804" lon="10.9356979"><ele>288.5</ele><time>2026-04-09T12:04:48.263Z</time></trkpt><trkpt lat="46.0133853" lon="10.9357923"><ele>288.3333333333333</ele><time>2026-04-09T12:04:49.26Z</time></trkpt><trkpt lat="46.0133996" lon="10.9358994"><ele>288.1666666666667</ele><time>2026-04-09T12:04:50.273Z</time></trkpt><trkpt lat="46.0134053" lon="10.9360555"><ele>288.0</ele><time>2026-04-09T12:04:52.254Z</time></trkpt><trkpt lat="46.0134809" lon="10.9361094"><ele>288.0</ele><time>2026-04-09T12:04:55.257Z</time></trkpt><trkpt lat="46.0135449" lon="10.9359737"><ele>288.0</ele><time>2026-04-09T12:04:57.259Z</time></trkpt><trkpt lat="46.013549" lon="10.9358083"><ele>288.0</ele><time>2026-04-09T12:04:59.256Z</time></trkpt><trkpt lat="46.0135352" lon="10.9357143"><ele>288.0</ele><time>2026-04-09T12:05:00.263Z</time></trkpt><trkpt lat="46.0135277" lon="10.9355876"><ele>288.0</ele><time>2026-04-09T12:05:02.262Z</time></trkpt><trkpt lat="46.0135834" lon="10.9355388"><ele>288.0</ele><time>2026-04-09T12:05:04.258Z</time></trkpt><trkpt lat="46.0136475" lon="10.9356479"><ele>288.0</ele><time>2026-04-09T12:05:06.252Z</time></trkpt><trkpt lat="46.01366" lon="10.9357485"><ele>288.0</ele><time>2026-04-09T12:05:07.266Z</time></trkpt><trkpt lat="46.0136602" lon="10.9358573"><ele>288.0</ele><time>2026-04-09T12:05:08.262Z</time></trkpt><trkpt lat="46.0137195" lon="10.9359831"><ele>288.0</ele><time>2026-04-09T12:05:10.257Z</time></trkpt><trkpt lat="46.0137888" lon="10.9359662"><ele>288.0</ele><time>2026-04-09T12:05:12.269Z</time></trkpt><trkpt lat="46.0138109" lon="10.9358674"><ele>288.0</ele><time>2026-04-09T12:05:14.254Z</time></trkpt><trkpt lat="46.0137707" lon="10.9357871"><ele>288.00000000000006</ele><time>2026-04-09T12:05:15.273Z</time></trkpt><trkpt lat="46.0137248" lon="10.9356996"><ele>288.0</ele><time>2026-04-09T12:05:16.263Z</time></trkpt><trkpt lat="46.0136958" lon="10.9356108"><ele>288.0</ele><time>2026-04-09T12:05:17.239Z</time></trkpt><trkpt lat="46.0136688" lon="10.9355161"><ele>288.0</ele><time>2026-04-09T12:05:18.265Z</time></trkpt><trkpt lat="46.01365" lon="10.9354279"><ele>288.0</ele><time>2026-04-09T12:05:19.269Z</time></trkpt><trkpt lat="46.0136829" lon="10.9353184"><ele>288.00000000000006</ele><time>2026-04-09T12:05:21.26Z</time></trkpt><trkpt lat="46.013765" lon="10.9353481"><ele>288.0</ele><time>2026-04-09T12:05:23.275Z</time></trkpt><trkpt lat="46.0138021" lon="10.9354831"><ele>288.0</ele><time>2026-04-09T12:05:25.256Z</time></trkpt><trkpt lat="46.0138039" lon="10.935575"><ele>288.0</ele><time>2026-04-09T12:05:26.264Z</time></trkpt><trkpt lat="46.0138045" lon="10.9356714"><ele>288.0</ele><time>2026-04-09T12:05:27.26Z</time></trkpt><trkpt lat="46.0138251" lon="10.9358189"><ele>288.0</ele><time>2026-04-09T12:05:29.26Z</time></trkpt><trkpt lat="46.0138655" lon="10.9359368"><ele>288.0</ele><time>2026-04-09T12:05:31.261Z</time></trkpt><trkpt lat="46.0139382" lon="10.936006"><ele>288.0</ele><time>2026-04-09T12:05:33.257Z</time></trkpt><trkpt lat="46.0140086" lon="10.9359925"><ele>288.0</ele><time>2026-04-09T12:05:35.246Z</time></trkpt><trkpt lat="46.0140816" lon="10.9359534"><ele>288.0</ele><time>2026-04-09T12:05:37.268Z</time></trkpt><trkpt lat="46.0141255" lon="10.9358834"><ele>288.0</ele><time>2026-04-09T12:05:39.25Z</time></trkpt><trkpt lat="46.0142132" lon="10.9357286"><ele>288.0</ele><time>2026-04-09T12:05:41.264Z</time></trkpt><trkpt lat="46.0142352" lon="10.9356394"><ele>288.0</ele><time>2026-04-09T12:05:43.262Z</time></trkpt><trkpt lat="46.0141654" lon="10.9356495"><ele>288.0</ele><time>2026-04-09T12:05:47.258Z</time></trkpt><trkpt lat="46.014104" lon="10.9357166"><ele>288.0</ele><time>2026-04-09T12:05:50.269Z</time></trkpt><trkpt lat="46.0141198" lon="10.9358549"><ele>288.0</ele><time>2026-04-09T12:05:53.259Z</time></trkpt><trkpt lat="46.0140751" lon="10.9359411"><ele>288.0</ele><time>2026-04-09T12:05:55.259Z</time></trkpt><trkpt lat="46.0139954" lon="10.9359817"><ele>288.0</ele><time>2026-04-09T12:05:57.259Z</time></trkpt><trkpt lat="46.0138858" lon="10.9359053"><ele>288.0</ele><time>2026-04-09T12:05:59.273Z</time></trkpt><trkpt lat="46.0138383" lon="10.935764"><ele>288.0</ele><time>2026-04-09T12:06:01.263Z</time></trkpt><trkpt lat="46.0138665" lon="10.9356619"><ele>288.0</ele><time>2026-04-09T12:06:03.267Z</time></trkpt><trkpt lat="46.0139525" lon="10.9357074"><ele>288.0</ele><time>2026-04-09T12:06:05.263Z</time></trkpt><trkpt lat="46.014016" lon="10.9358346"><ele>288.0</ele><time>2026-04-09T12:06:07.265Z</time></trkpt><trkpt lat="46.0139473" lon="10.935682"><ele>288.0</ele><time>2026-04-09T12:06:12.259Z</time></trkpt><trkpt lat="46.013875" lon="10.9355688"><ele>288.0</ele><time>2026-04-09T12:06:13.262Z</time></trkpt><trkpt lat="46.0138287" lon="10.9354522"><ele>288.0</ele><time>2026-04-09T12:06:14.263Z</time></trkpt><trkpt lat="46.0138042" lon="10.9353606"><ele>288.0</ele><time>2026-04-09T12:06:15.267Z</time></trkpt><trkpt lat="46.0138079" lon="10.9352255"><ele>288.0</ele><time>2026-04-09T12:06:17.274Z</time></trkpt><trkpt lat="46.0138857" lon="10.9352538"><ele>288.0</ele><time>2026-04-09T12:07:50.26Z</time></trkpt><trkpt lat="46.0139259" lon="10.9353328"><ele>288.0</ele><time>2026-04-09T12:07:51.266Z</time></trkpt><trkpt lat="46.0139662" lon="10.9354141"><ele>288.0</ele><time>2026-04-09T12:07:52.249Z</time></trkpt><trkpt lat="46.0140444" lon="10.9355081"><ele>288.0</ele><time>2026-04-09T12:07:54.262Z</time></trkpt><trkpt lat="46.014131" lon="10.9354874"><ele>288.0</ele><time>2026-04-09T12:07:56.259Z</time></trkpt><trkpt lat="46.0142489" lon="10.9354223"><ele>299.0</ele><time>2026-04-09T12:07:58.259Z</time></trkpt><trkpt lat="46.0143226" lon="10.9353658"><ele>299.0</ele><time>2026-04-09T12:08:00.264Z</time></trkpt></trkseg></trk></gpx>